<?xml version='1.0' encoding='UTF-8'?><gpx version="1.1" creator="JPX - https://github.com/jenetics/jpx" xmlns="http://www.topografix.com/GPX/1/1"><trk><trkseg><trkpt lat="25.05501777389134" lon="121.48309539990422"><ele>6.0</ele><time>2026-03-22T22:29:30Z</time></trkpt><trkpt lat="25.055023894632367" lon="121.48298956601595"><ele>6.0</ele><time>2026-03-22T22:29:32Z</time></trkpt><trkpt lat="25.055090412917593" lon="121.48296195015118"><ele>6.0</ele><time>2026-03-22T22:29:33Z</time></trkpt><trkpt lat="25.055181326991196" lon="121.48289602276586"><ele>6.0</ele><time>2026-03-22T22:29:34Z</time></trkpt><trkpt lat="25.055326570176927" lon="121.48279951950312"><ele>6.0</ele><time>2026-03-22T22:29:35Z</time></trkpt><trkpt lat="25.055381914234868" lon="121.48275800159128"><ele>5.0</ele><time>2026-03-22T22:29:36Z</time></trkpt><trkpt lat="25.055592977370566" lon="121.48264712424309"><ele>4.0</ele><time>2026-03-22T22:29:37Z</time></trkpt><trkpt lat="25.0557730063148" lon="121.48255911869249"><ele>3.0</ele><time>2026-03-22T22:29:38Z</time></trkpt><trkpt lat="25.05593931908781" lon="121.48247286088262"><ele>3.0</ele><time>2026-03-22T22:29:39Z</time></trkpt><trkpt lat="25.056107382851355" lon="121.48237759358382"><ele>3.0</ele><time>2026-03-22T22:29:40Z</time></trkpt><trkpt lat="25.056324649567056" lon="121.48225104139094"><ele>3.0</ele><time>2026-03-22T22:29:41Z</time></trkpt><trkpt lat="25.05652523526171" lon="121.48214129449262"><ele>3.0</ele><time>2026-03-22T22:29:42Z</time></trkpt><trkpt lat="25.056768658781667" lon="121.48200077167935"><ele>3.0</ele><time>2026-03-22T22:29:43Z</time></trkpt><trkpt lat="25.057127394504192" lon="121.48181499186471"><ele>3.0</ele><time>2026-03-22T22:29:44Z</time></trkpt><trkpt lat="25.05741408555334" lon="121.48166461098697"><ele>3.0</ele><time>2026-03-22T22:29:45Z</time></trkpt><trkpt lat="25.057641531818874" lon="121.48155253314253"><ele>2.5</ele><time>2026-03-22T22:29:46Z</time></trkpt><trkpt lat="25.05795206028083" lon="121.48139256390945"><ele>2.0</ele><time>2026-03-22T22:29:47Z</time></trkpt><trkpt lat="25.058146370189096" lon="121.48129603396532"><ele>2.5</ele><time>2026-03-22T22:29:48Z</time></trkpt><trkpt lat="25.058417781386105" lon="121.48115871884886"><ele>3.0</ele><time>2026-03-22T22:29:49Z</time></trkpt><trkpt lat="25.058653268955798" lon="121.48104295950115"><ele>3.0</ele><time>2026-03-22T22:29:50Z</time></trkpt><trkpt lat="25.058910792744705" lon="121.48091028162041"><ele>3.0</ele><time>2026-03-22T22:29:51Z</time></trkpt><trkpt lat="25.059175004695348" lon="121.48078063354404"><ele>2.5</ele><time>2026-03-22T22:29:52Z</time></trkpt><trkpt lat="25.05936769107099" lon="121.48068166695259"><ele>2.0</ele><time>2026-03-22T22:29:53Z</time></trkpt><trkpt lat="25.05965632628187" lon="121.4805352219619"><ele>2.5</ele><time>2026-03-22T22:29:54Z</time></trkpt><trkpt lat="25.059905854678753" lon="121.48041282797851"><ele>3.0</ele><time>2026-03-22T22:29:55Z</time></trkpt><trkpt lat="25.0601384183061" lon="121.48030048983547"><ele>4.0</ele><time>2026-03-22T22:29:56Z</time></trkpt><trkpt lat="25.060308972261932" lon="121.48021792182548"><ele>5.0</ele><time>2026-03-22T22:29:57Z</time></trkpt><trkpt lat="25.060605168208745" lon="121.48007549114132"><ele>2.0</ele><time>2026-03-22T22:29:58Z</time></trkpt><trkpt lat="25.061117040221852" lon="121.47975811665587"><ele>2.0</ele><time>2026-03-22T22:30:00Z</time></trkpt><trkpt lat="25.061307695500382" lon="121.47965246825339"><ele>2.0</ele><time>2026-03-22T22:30:01Z</time></trkpt><trkpt lat="25.06147599193916" lon="121.47958014346338"><ele>2.0</ele><time>2026-03-22T22:30:02Z</time></trkpt><trkpt lat="25.06173148307195" lon="121.47948970494063"><ele>2.0</ele><time>2026-03-22T22:30:03Z</time></trkpt><trkpt lat="25.06192669157601" lon="121.47937676846935"><ele>2.0</ele><time>2026-03-22T22:30:04Z</time></trkpt><trkpt lat="25.062118816245917" lon="121.47926277394849"><ele>2.0</ele><time>2026-03-22T22:30:05Z</time></trkpt><trkpt lat="25.062315374354743" lon="121.4791394300243"><ele>2.0</ele><time>2026-03-22T22:30:06Z</time></trkpt><trkpt lat="25.062501059672986" lon="121.47901717511202"><ele>2.0</ele><time>2026-03-22T22:30:07Z</time></trkpt><trkpt lat="25.06269006602575" lon="121.4788889341182"><ele>2.0</ele><time>2026-03-22T22:30:08Z</time></trkpt><trkpt lat="25.062871117973046" lon="121.47875373436759"><ele>2.0</ele><time>2026-03-22T22:30:09Z</time></trkpt><trkpt lat="25.063044127147126" lon="121.47861471819719"><ele>2.0</ele><time>2026-03-22T22:30:10Z</time></trkpt><trkpt lat="25.06321583154451" lon="121.4784737082498"><ele>2.0</ele><time>2026-03-22T22:30:11Z</time></trkpt><trkpt lat="25.06338632615418" lon="121.47833018601544"><ele>2.0</ele><time>2026-03-22T22:30:12Z</time></trkpt><trkpt lat="25.063553849716747" lon="121.47818041294492"><ele>2.0</ele><time>2026-03-22T22:30:13Z</time></trkpt><trkpt lat="25.063713404831798" lon="121.47803105342861"><ele>2.0</ele><time>2026-03-22T22:30:14Z</time></trkpt><trkpt lat="25.063872432732776" lon="121.47787835553959"><ele>2.0</ele><time>2026-03-22T22:30:15Z</time></trkpt><trkpt lat="25.064032460522988" lon="121.47772010617808"><ele>2.0</ele><time>2026-03-22T22:30:16Z</time></trkpt><trkpt lat="25.064189919115773" lon="121.47755647097601"><ele>2.0</ele><time>2026-03-22T22:30:17Z</time></trkpt><trkpt lat="25.064338990550063" lon="121.47739394222081"><ele>2.333333333333333</ele><time>2026-03-22T22:30:18Z</time></trkpt><trkpt lat="25.064489071171806" lon="121.47722566810812"><ele>2.6666666666666665</ele><time>2026-03-22T22:30:19Z</time></trkpt><trkpt lat="25.06463504327688" lon="121.47705704102886"><ele>3.0</ele><time>2026-03-22T22:30:20Z</time></trkpt><trkpt lat="25.064779806006175" lon="121.47688160242629"><ele>3.0</ele><time>2026-03-22T22:30:21Z</time></trkpt><trkpt lat="25.064918685880077" lon="121.47670743813"><ele>3.0</ele><time>2026-03-22T22:30:22Z</time></trkpt><trkpt lat="25.06505808062317" lon="121.47652120935851"><ele>3.0</ele><time>2026-03-22T22:30:23Z</time></trkpt><trkpt lat="25.065187288230945" lon="121.47633678167043"><ele>3.0</ele><time>2026-03-22T22:30:24Z</time></trkpt><trkpt lat="25.065313054012286" lon="121.47614693018359"><ele>3.0</ele><time>2026-03-22T22:30:25Z</time></trkpt><trkpt lat="25.06543557328281" lon="121.4759571026552"><ele>3.0</ele><time>2026-03-22T22:30:26Z</time></trkpt><trkpt lat="25.065554763499712" lon="121.47577038571342"><ele>3.0</ele><time>2026-03-22T22:30:27Z</time></trkpt><trkpt lat="25.06567809110921" lon="121.47558819844434"><ele>3.0</ele><time>2026-03-22T22:30:27.999Z</time></trkpt><trkpt lat="25.065803961617426" lon="121.47539165766163"><ele>3.0</ele><time>2026-03-22T22:30:28.999Z</time></trkpt><trkpt lat="25.065915741576408" lon="121.47519753431573"><ele>3.0</ele><time>2026-03-22T22:30:29.999Z</time></trkpt><trkpt lat="25.066027359727855" lon="121.47499845787759"><ele>3.0</ele><time>2026-03-22T22:30:30.999Z</time></trkpt><trkpt lat="25.066131692134945" lon="121.47480365957682"><ele>3.0</ele><time>2026-03-22T22:30:31.999Z</time></trkpt><trkpt lat="25.06623272093894" lon="121.47460730309932"><ele>2.6666666666666665</ele><time>2026-03-22T22:30:32.999Z</time></trkpt><trkpt lat="25.066332281170137" lon="121.47441513255639"><ele>2.333333333333333</ele><time>2026-03-22T22:30:33.999Z</time></trkpt><trkpt lat="25.0664351002964" lon="121.47421832128806"><ele>2.0</ele><time>2026-03-22T22:30:34.999Z</time></trkpt><trkpt lat="25.066539192788326" lon="121.47401664243678"><ele>2.333333333333333</ele><time>2026-03-22T22:30:35.999Z</time></trkpt><trkpt lat="25.06664356886046" lon="121.47381395037789"><ele>2.6666666666666665</ele><time>2026-03-22T22:30:36.999Z</time></trkpt><trkpt lat="25.06674101644397" lon="121.47362471302824"><ele>3.0</ele><time>2026-03-22T22:30:37.999Z</time></trkpt><trkpt lat="25.066840545015946" lon="121.47343191893016"><ele>3.333333333333333</ele><time>2026-03-22T22:30:38.999Z</time></trkpt><trkpt lat="25.06693905619764" lon="121.47324162925986"><ele>3.6666666666666665</ele><time>2026-03-22T22:30:39.999Z</time></trkpt><trkpt lat="25.06703919885144" lon="121.47305076892864"><ele>4.0</ele><time>2026-03-22T22:30:40.999Z</time></trkpt><trkpt lat="25.06714160120802" lon="121.47285763231747"><ele>6.333333333333333</ele><time>2026-03-22T22:30:41.999Z</time></trkpt><trkpt lat="25.067239835013087" lon="121.47265935925262"><ele>8.666666666666666</ele><time>2026-03-22T22:30:42.999Z</time></trkpt><trkpt lat="25.067338952742695" lon="121.47245462787673"><ele>11.0</ele><time>2026-03-22T22:30:43.999Z</time></trkpt><trkpt lat="25.06743375469993" lon="121.47227088140204"><ele>9.333333333333332</ele><time>2026-03-22T22:30:45Z</time></trkpt><trkpt lat="25.06753127547843" lon="121.47207679657703"><ele>7.666666666666666</ele><time>2026-03-22T22:30:46Z</time></trkpt><trkpt lat="25.06762121953521" lon="121.47188595250341"><ele>6.0</ele><time>2026-03-22T22:30:47Z</time></trkpt><trkpt lat="25.06771852964043" lon="121.47167118020785"><ele>6.0</ele><time>2026-03-22T22:30:48Z</time></trkpt><trkpt lat="25.067829377515007" lon="121.4714620636526"><ele>6.0</ele><time>2026-03-22T22:30:49Z</time></trkpt><trkpt lat="25.06794443635474" lon="121.47123479474831"><ele>4.0</ele><time>2026-03-22T22:30:50Z</time></trkpt><trkpt lat="25.068017919834865" lon="121.47106655191622"><ele>2.0</ele><time>2026-03-22T22:30:51Z</time></trkpt><trkpt lat="25.068099053197827" lon="121.47092623608329"><ele>0.0</ele><time>2026-03-22T22:30:52Z</time></trkpt><trkpt lat="25.068185899217767" lon="121.4707610805859"><ele>0.0</ele><time>2026-03-22T22:30:53Z</time></trkpt><trkpt lat="25.068262048183076" lon="121.47060868846822"><ele>0.0</ele><time>2026-03-22T22:30:54Z</time></trkpt><trkpt lat="25.068312468558325" lon="121.47044157959952"><ele>0.0</ele><time>2026-03-22T22:30:55Z</time></trkpt><trkpt lat="25.06838208891456" lon="121.4702717031966"><ele>0.25</ele><time>2026-03-22T22:30:56Z</time></trkpt><trkpt lat="25.06844706510136" lon="121.47012279372004"><ele>0.5</ele><time>2026-03-22T22:30:57Z</time></trkpt><trkpt lat="25.06849193170386" lon="121.46995935418654"><ele>0.75</ele><time>2026-03-22T22:30:58Z</time></trkpt><trkpt lat="25.068559956244854" lon="121.46985776369982"><ele>1.0</ele><time>2026-03-22T22:30:59Z</time></trkpt><trkpt lat="25.06862511769502" lon="121.46972922012564"><ele>1.0</ele><time>2026-03-22T22:31:00Z</time></trkpt><trkpt lat="25.068704648216844" lon="121.46957186769794"><ele>1.0</ele><time>2026-03-22T22:31:01Z</time></trkpt><trkpt lat="25.068782284018116" lon="121.46941794957549"><ele>1.0</ele><time>2026-03-22T22:31:02Z</time></trkpt><trkpt lat="25.068851713372677" lon="121.46928333473993"><ele>1.0</ele><time>2026-03-22T22:31:03Z</time></trkpt><trkpt lat="25.0689003925519" lon="121.4691877504293"><ele>1.0</ele><time>2026-03-22T22:31:04Z</time></trkpt><trkpt lat="25.068963931050007" lon="121.46906298899651"><ele>1.0</ele><time>2026-03-22T22:31:05Z</time></trkpt><trkpt lat="25.069016647199938" lon="121.46895947787279"><ele>1.0</ele><time>2026-03-22T22:31:06Z</time></trkpt><trkpt lat="25.069046579612813" lon="121.46886437109373"><ele>1.0</ele><time>2026-03-22T22:31:07Z</time></trkpt><trkpt lat="25.069082025939796" lon="121.46874462487203"><ele>0.5</ele><time>2026-03-22T22:31:08Z</time></trkpt><trkpt lat="25.069103762155162" lon="121.4686381718583"><ele>0.0</ele><time>2026-03-22T22:31:09Z</time></trkpt><trkpt lat="25.068330119776736" lon="121.4680298032027"><ele>-0.5</ele><time>2026-03-22T22:31:10Z</time></trkpt><trkpt lat="25.068275864757965" lon="121.46787630294297"><ele>-1.0</ele><time>2026-03-22T22:31:11Z</time></trkpt><trkpt lat="25.068217345201724" lon="121.46772493531023"><ele>-1.5</ele><time>2026-03-22T22:31:12Z</time></trkpt><trkpt lat="25.06817555706016" lon="121.46758676165621"><ele>-2.0</ele><time>2026-03-22T22:31:13Z</time></trkpt><trkpt lat="25.06808227562006" lon="121.46744245133237"><ele>-2.0</ele><time>2026-03-22T22:31:14Z</time></trkpt><trkpt lat="25.06794848887896" lon="121.46729728539277"><ele>-2.0</ele><time>2026-03-22T22:31:15Z</time></trkpt><trkpt lat="25.067840567544692" lon="121.46715046566263"><ele>-2.0</ele><time>2026-03-22T22:31:16Z</time></trkpt><trkpt lat="25.067720698205925" lon="121.46701378833528"><ele>-1.0</ele><time>2026-03-22T22:31:17Z</time></trkpt><trkpt lat="25.067620690429806" lon="121.46689666035778"><ele>0.0</ele><time>2026-03-22T22:31:18Z</time></trkpt><trkpt lat="25.067511254756848" lon="121.4667759850628"><ele>1.0</ele><time>2026-03-22T22:31:19Z</time></trkpt><trkpt lat="25.067380571629442" lon="121.46663499339645"><ele>1.0</ele><time>2026-03-22T22:31:20Z</time></trkpt><trkpt lat="25.06724717128989" lon="121.46651621717466"><ele>1.0</ele><time>2026-03-22T22:31:21Z</time></trkpt><trkpt lat="25.067108786304242" lon="121.46641420420474"><ele>1.0</ele><time>2026-03-22T22:31:22Z</time></trkpt><trkpt lat="25.06697433561269" lon="121.46631634273956"><ele>1.0</ele><time>2026-03-22T22:31:23Z</time></trkpt><trkpt lat="25.06684028028728" lon="121.46621115059759"><ele>1.0</ele><time>2026-03-22T22:31:24Z</time></trkpt><trkpt lat="25.066710536679683" lon="121.46610942453587"><ele>1.0</ele><time>2026-03-22T22:31:25Z</time></trkpt><trkpt lat="25.066571107538532" lon="121.46601112436556"><ele>1.0</ele><time>2026-03-22T22:31:26Z</time></trkpt><trkpt lat="25.066418345236684" lon="121.46593535901589"><ele>1.0</ele><time>2026-03-22T22:31:27Z</time></trkpt><trkpt lat="25.06627865870631" lon="121.46584402695119"><ele>1.0</ele><time>2026-03-22T22:31:28Z</time></trkpt><trkpt lat="25.06612707314561" lon="121.46574273441331"><ele>1.0</ele><time>2026-03-22T22:31:29Z</time></trkpt><trkpt lat="25.065985457975376" lon="121.46565034749763"><ele>1.0</ele><time>2026-03-22T22:31:30Z</time></trkpt><trkpt lat="25.065840631585697" lon="121.46555446817435"><ele>1.0</ele><time>2026-03-22T22:31:31Z</time></trkpt><trkpt lat="25.065696719800105" lon="121.46545999968237"><ele>2.3333333333333335</ele><time>2026-03-22T22:31:32Z</time></trkpt><trkpt lat="25.06556200513001" lon="121.46536769405998"><ele>3.666666666666667</ele><time>2026-03-22T22:31:33Z</time></trkpt><trkpt lat="25.065418925622144" lon="121.46528010389403"><ele>5.0</ele><time>2026-03-22T22:31:34Z</time></trkpt><trkpt lat="25.06527120332391" lon="121.46519010307057"><ele>5.0</ele><time>2026-03-22T22:31:35Z</time></trkpt><trkpt lat="25.06513082607247" lon="121.46509603060106"><ele>5.0</ele><time>2026-03-22T22:31:36Z</time></trkpt><trkpt lat="25.06498321907237" lon="121.46501155778515"><ele>5.0</ele><time>2026-03-22T22:31:37Z</time></trkpt><trkpt lat="25.064849242991595" lon="121.46491848379164"><ele>5.0</ele><time>2026-03-22T22:31:38Z</time></trkpt><trkpt lat="25.064703937758708" lon="121.46482916970047"><ele>5.0</ele><time>2026-03-22T22:31:39Z</time></trkpt><trkpt lat="25.06456137595253" lon="121.46473840465343"><ele>5.0</ele><time>2026-03-22T22:31:40Z</time></trkpt><trkpt lat="25.064420840922814" lon="121.46464435335156"><ele>5.666666666666667</ele><time>2026-03-22T22:31:41Z</time></trkpt><trkpt lat="25.064281966337724" lon="121.46455082727698"><ele>6.333333333333334</ele><time>2026-03-22T22:31:42Z</time></trkpt><trkpt lat="25.0641419363408" lon="121.46445962778336"><ele>7.0</ele><time>2026-03-22T22:31:43Z</time></trkpt><trkpt lat="25.06400273076729" lon="121.46436738270464"><ele>7.0</ele><time>2026-03-22T22:31:44Z</time></trkpt><trkpt lat="25.063860452236028" lon="121.46427539529327"><ele>7.0</ele><time>2026-03-22T22:31:45Z</time></trkpt><trkpt lat="25.06372237164919" lon="121.46418243881746"><ele>7.0</ele><time>2026-03-22T22:31:46Z</time></trkpt><trkpt lat="25.063582261262354" lon="121.46408977211279"><ele>7.0</ele><time>2026-03-22T22:31:47Z</time></trkpt><trkpt lat="25.063445017002834" lon="121.46399165964563"><ele>7.0</ele><time>2026-03-22T22:31:48Z</time></trkpt><trkpt lat="25.06330846076165" lon="121.46389010148502"><ele>7.0</ele><time>2026-03-22T22:31:49Z</time></trkpt><trkpt lat="25.063177374835465" lon="121.4637856428828"><ele>5.666666666666667</ele><time>2026-03-22T22:31:50Z</time></trkpt><trkpt lat="25.063051100556244" lon="121.46367097659062"><ele>4.333333333333334</ele><time>2026-03-22T22:31:51Z</time></trkpt><trkpt lat="25.062923592334116" lon="121.46355252449418"><ele>3.0</ele><time>2026-03-22T22:31:52Z</time></trkpt><trkpt lat="25.06280806838385" lon="121.4634305426565"><ele>3.0</ele><time>2026-03-22T22:31:53Z</time></trkpt><trkpt lat="25.062690505845115" lon="121.46330503840527"><ele>3.0</ele><time>2026-03-22T22:31:54Z</time></trkpt><trkpt lat="25.062580968438574" lon="121.46317711440442"><ele>3.0</ele><time>2026-03-22T22:31:55Z</time></trkpt><trkpt lat="25.06248539933748" lon="121.46304261225781"><ele>5.0</ele><time>2026-03-22T22:31:56Z</time></trkpt><trkpt lat="25.062402680753173" lon="121.46290122900365"><ele>7.0</ele><time>2026-03-22T22:31:57Z</time></trkpt><trkpt lat="25.062320024583148" lon="121.46276151497977"><ele>9.0</ele><time>2026-03-22T22:31:58Z</time></trkpt><trkpt lat="25.06224904764792" lon="121.46259506107063"><ele>9.0</ele><time>2026-03-22T22:31:59Z</time></trkpt><trkpt lat="25.062188615245873" lon="121.46243449759704"><ele>9.0</ele><time>2026-03-22T22:32:00Z</time></trkpt><trkpt lat="25.06208886993547" lon="121.46227814347428"><ele>9.0</ele><time>2026-03-22T22:32:01Z</time></trkpt><trkpt lat="25.06207419890119" lon="121.46210192308286"><ele>7.666666666666667</ele><time>2026-03-22T22:32:02Z</time></trkpt><trkpt lat="25.06199759339405" lon="121.46195590635493"><ele>6.333333333333334</ele><time>2026-03-22T22:32:03Z</time></trkpt><trkpt lat="25.061938452776893" lon="121.46178018027283"><ele>5.0</ele><time>2026-03-22T22:32:04Z</time></trkpt><trkpt lat="25.06189851516207" lon="121.46161011393156"><ele>5.0</ele><time>2026-03-22T22:32:05Z</time></trkpt><trkpt lat="25.061861293582954" lon="121.46143687072396"><ele>5.0</ele><time>2026-03-22T22:32:06Z</time></trkpt><trkpt lat="25.061837834782697" lon="121.46126497410465"><ele>5.0</ele><time>2026-03-22T22:32:07Z</time></trkpt><trkpt lat="25.061818702564942" lon="121.46110458919448"><ele>6.0</ele><time>2026-03-22T22:32:08Z</time></trkpt><trkpt lat="25.06179981364307" lon="121.46094624397325"><ele>7.0</ele><time>2026-03-22T22:32:09Z</time></trkpt><trkpt lat="25.061782211040104" lon="121.46079137864352"><ele>8.0</ele><time>2026-03-22T22:32:10Z</time></trkpt><trkpt lat="25.06184718342286" lon="121.46063023432444"><ele>9.0</ele><time>2026-03-22T22:32:11Z</time></trkpt><trkpt lat="25.061830232161874" lon="121.46048822634557"><ele>8.5</ele><time>2026-03-22T22:32:12Z</time></trkpt><trkpt lat="25.061814391464626" lon="121.46035077468008"><ele>8.0</ele><time>2026-03-22T22:32:13Z</time></trkpt><trkpt lat="25.0617995207162" lon="121.46021965282252"><ele>7.5</ele><time>2026-03-22T22:32:14Z</time></trkpt><trkpt lat="25.061786113454065" lon="121.46009287051689"><ele>7.0</ele><time>2026-03-22T22:32:15Z</time></trkpt><trkpt lat="25.06177384518059" lon="121.45997077894643"><ele>7.0</ele><time>2026-03-22T22:32:16Z</time></trkpt><trkpt lat="25.061760635731613" lon="121.45985753490825"><ele>7.0</ele><time>2026-03-22T22:32:17Z</time></trkpt><trkpt lat="25.06158132976585" lon="121.45981846955324"><ele>7.0</ele><time>2026-03-22T22:32:18Z</time></trkpt><trkpt lat="25.061738000171747" lon="121.45964572343736"><ele>7.0</ele><time>2026-03-22T22:32:19Z</time></trkpt><trkpt lat="25.061725527343064" lon="121.45954328777562"><ele>7.0</ele><time>2026-03-22T22:32:20Z</time></trkpt><trkpt lat="25.061715496400343" lon="121.45944901786068"><ele>7.0</ele><time>2026-03-22T22:32:21Z</time></trkpt><trkpt lat="25.06170203689533" lon="121.45936116455195"><ele>7.0</ele><time>2026-03-22T22:32:22Z</time></trkpt><trkpt lat="25.06204514965753" lon="121.45927590970228"><ele>7.0</ele><time>2026-03-22T22:32:23Z</time></trkpt><trkpt lat="25.062052541897803" lon="121.45958639865539"><ele>7.0</ele><time>2026-03-22T22:32:24Z</time></trkpt><trkpt lat="25.06164802935223" lon="121.45898891862078"><ele>7.0</ele><time>2026-03-22T22:32:27Z</time></trkpt><trkpt lat="25.061624608784665" lon="121.45885794321498"><ele>6.999999999999999</ele><time>2026-03-22T22:32:29Z</time></trkpt><trkpt lat="25.06161434792417" lon="121.4587336259749"><ele>6.999999999999999</ele><time>2026-03-22T22:32:31Z</time></trkpt><trkpt lat="25.061603709990724" lon="121.45861111804382"><ele>7.0</ele><time>2026-03-22T22:32:33Z</time></trkpt><trkpt lat="25.06160145205824" lon="121.45853176762921"><ele>7.0</ele><time>2026-03-22T22:32:33.999Z</time></trkpt><trkpt lat="25.06160396932993" lon="121.45844113923539"><ele>7.0</ele><time>2026-03-22T22:32:35.999Z</time></trkpt><trkpt lat="25.061629963675603" lon="121.45830854928897"><ele>6.999999999999999</ele><time>2026-03-22T22:32:37.999Z</time></trkpt><trkpt lat="25.061661035354547" lon="121.45824300351347"><ele>6.999999999999999</ele><time>2026-03-22T22:32:39.999Z</time></trkpt><trkpt lat="25.06170291624418" lon="121.45816055781485"><ele>7.0</ele><time>2026-03-22T22:32:42.999Z</time></trkpt><trkpt lat="25.061700456968346" lon="121.45808363093532"><ele>7.0</ele><time>2026-03-22T22:32:44.999Z</time></trkpt><trkpt lat="25.06169529412006" lon="121.45793438193272"><ele>7.000000000000001</ele><time>2026-03-22T22:32:46.999Z</time></trkpt><trkpt lat="25.06172622007285" lon="121.45784833959502"><ele>7.0</ele><time>2026-03-22T22:32:49.999Z</time></trkpt><trkpt lat="25.06174421454728" lon="121.4579508326191"><ele>7.0</ele><time>2026-03-22T22:32:52.999Z</time></trkpt><trkpt lat="25.061731089538927" lon="121.45808072617619"><ele>7.0</ele><time>2026-03-22T22:32:53.999Z</time></trkpt><trkpt lat="25.061703220428946" lon="121.45815218150462"><ele>7.000000000000001</ele><time>2026-03-22T22:32:57.999Z</time></trkpt><trkpt lat="25.061678910830533" lon="121.45821867875301"><ele>7.0</ele><time>2026-03-22T22:32:58.999Z</time></trkpt><trkpt lat="25.061651111378342" lon="121.45814168265956"><ele>7.25</ele><time>2026-03-22T22:33:04.999Z</time></trkpt><trkpt lat="25.061621310874102" lon="121.45806102539466"><ele>7.5</ele><time>2026-03-22T22:33:06.999Z</time></trkpt><trkpt lat="25.06148854173612" lon="121.45805651958814"><ele>7.75</ele><time>2026-03-22T22:33:16.999Z</time></trkpt><trkpt lat="25.061531576700673" lon="121.4581625775061"><ele>8.0</ele><time>2026-03-22T22:33:23.999Z</time></trkpt><trkpt lat="25.061546484086236" lon="121.45796485320895"><ele>6.25</ele><time>2026-03-22T22:33:31.999Z</time></trkpt><trkpt lat="25.061511770736676" lon="121.4578142374749"><ele>4.5</ele><time>2026-03-22T22:33:32.999Z</time></trkpt><trkpt lat="25.061493496194444" lon="121.45767289294666"><ele>2.75</ele><time>2026-03-22T22:33:33.999Z</time></trkpt><trkpt lat="25.061480990649205" lon="121.45755916609532"><ele>1.0</ele><time>2026-03-22T22:33:34.999Z</time></trkpt><trkpt lat="25.061467523563685" lon="121.45736865303523"><ele>1.0</ele><time>2026-03-22T22:33:35.999Z</time></trkpt><trkpt lat="25.06144867695119" lon="121.45721063218656"><ele>1.0</ele><time>2026-03-22T22:33:36.999Z</time></trkpt><trkpt lat="25.06142771906865" lon="121.45697357679722"><ele>1.0</ele><time>2026-03-22T22:33:37.999Z</time></trkpt><trkpt lat="25.061385831566113" lon="121.45677304209008"><ele>2.5</ele><time>2026-03-22T22:33:38.999Z</time></trkpt><trkpt lat="25.061366742653732" lon="121.4565184793514"><ele>4.0</ele><time>2026-03-22T22:33:39.999Z</time></trkpt><trkpt lat="25.061346340516025" lon="121.45625220006409"><ele>5.0</ele><time>2026-03-22T22:33:40.999Z</time></trkpt><trkpt lat="25.061325370751028" lon="121.4559964918965"><ele>6.0</ele><time>2026-03-22T22:33:41.999Z</time></trkpt><trkpt lat="25.061141996922824" lon="121.45573304828353"><ele>6.0</ele><time>2026-03-22T22:33:42.999Z</time></trkpt><trkpt lat="25.06114528618638" lon="121.4554930303349"><ele>6.0</ele><time>2026-03-22T22:33:43.999Z</time></trkpt><trkpt lat="25.061148454581804" lon="121.45526183215753"><ele>6.0</ele><time>2026-03-22T22:33:44.999Z</time></trkpt><trkpt lat="25.061151441151374" lon="121.45504390177504"><ele>6.0</ele><time>2026-03-22T22:33:45.999Z</time></trkpt><trkpt lat="25.06115310615949" lon="121.4548252682213"><ele>6.0</ele><time>2026-03-22T22:33:46.999Z</time></trkpt><trkpt lat="25.061128271134447" lon="121.4546086731572"><ele>6.0</ele><time>2026-03-22T22:33:47.999Z</time></trkpt><trkpt lat="25.061104282868957" lon="121.45440920690498"><ele>6.0</ele><time>2026-03-22T22:33:48.999Z</time></trkpt><trkpt lat="25.061084141548395" lon="121.45422165811671"><ele>6.0</ele><time>2026-03-22T22:33:49.999Z</time></trkpt><trkpt lat="25.061055988560277" lon="121.45401788478004"><ele>6.0</ele><time>2026-03-22T22:33:50.999Z</time></trkpt><trkpt lat="25.061043046205704" lon="121.45382874861095"><ele>5.333333333333333</ele><time>2026-03-22T22:33:51.999Z</time></trkpt><trkpt lat="25.0610262665169" lon="121.45367338253378"><ele>4.666666666666666</ele><time>2026-03-22T22:33:52.999Z</time></trkpt><trkpt lat="25.061029754564156" lon="121.45349839832109"><ele>4.0</ele><time>2026-03-22T22:33:53.999Z</time></trkpt><trkpt lat="25.060998070731046" lon="121.45332207206978"><ele>4.0</ele><time>2026-03-22T22:33:54.999Z</time></trkpt><trkpt lat="25.06099661997129" lon="121.4531601342874"><ele>4.0</ele><time>2026-03-22T22:33:55.999Z</time></trkpt><trkpt lat="25.06097404923158" lon="121.4529833203064"><ele>4.0</ele><time>2026-03-22T22:33:56.999Z</time></trkpt><trkpt lat="25.060959433882847" lon="121.45280958681022"><ele>4.0</ele><time>2026-03-22T22:33:57.999Z</time></trkpt><trkpt lat="25.060941667802254" lon="121.452644879322"><ele>4.0</ele><time>2026-03-22T22:33:58.999Z</time></trkpt><trkpt lat="25.060914208502506" lon="121.45247240149257"><ele>4.0</ele><time>2026-03-22T22:33:59.999Z</time></trkpt><trkpt lat="25.060882548731154" lon="121.45230201232019"><ele>4.0</ele><time>2026-03-22T22:34:00.999Z</time></trkpt><trkpt lat="25.06060736408978" lon="121.4521285456149"><ele>4.0</ele><time>2026-03-22T22:34:01.999Z</time></trkpt><trkpt lat="25.060607136007278" lon="121.45196181790566"><ele>4.0</ele><time>2026-03-22T22:34:02.999Z</time></trkpt><trkpt lat="25.060606904046345" lon="121.45179225516327"><ele>4.0</ele><time>2026-03-22T22:34:03.999Z</time></trkpt><trkpt lat="25.060606663749027" lon="121.45161659814111"><ele>4.0</ele><time>2026-03-22T22:34:04.999Z</time></trkpt><trkpt lat="25.060606412596602" lon="121.45143300634142"><ele>3.6666666666666665</ele><time>2026-03-22T22:34:05.999Z</time></trkpt><trkpt lat="25.060700305214276" lon="121.4512375547528"><ele>3.333333333333333</ele><time>2026-03-22T22:34:06.999Z</time></trkpt><trkpt lat="25.060677885092986" lon="121.45102685435789"><ele>3.0</ele><time>2026-03-22T22:34:07.999Z</time></trkpt><trkpt lat="25.06065195542877" lon="121.45081600258993"><ele>3.0</ele><time>2026-03-22T22:34:08.999Z</time></trkpt><trkpt lat="25.060624686013234" lon="121.45058752894218"><ele>3.0</ele><time>2026-03-22T22:34:09.999Z</time></trkpt><trkpt lat="25.06060226507637" lon="121.45036984476468"><ele>3.0</ele><time>2026-03-22T22:34:10.999Z</time></trkpt><trkpt lat="25.060472844449436" lon="121.4501658401325"><ele>3.0</ele><time>2026-03-22T22:34:11.999Z</time></trkpt><trkpt lat="25.060446918157414" lon="121.4499316177159"><ele>3.0</ele><time>2026-03-22T22:34:12.999Z</time></trkpt><trkpt lat="25.060418588838022" lon="121.44971754437476"><ele>3.0</ele><time>2026-03-22T22:34:13.999Z</time></trkpt><trkpt lat="25.060390524672357" lon="121.44950531170485"><ele>2.3333333333333335</ele><time>2026-03-22T22:34:14.999Z</time></trkpt><trkpt lat="25.060364897041193" lon="121.4492980036895"><ele>1.6666666666666665</ele><time>2026-03-22T22:34:15.999Z</time></trkpt><trkpt lat="25.060340810601332" lon="121.4490927494413"><ele>1.0</ele><time>2026-03-22T22:34:16.999Z</time></trkpt><trkpt lat="25.06031648020241" lon="121.44888726584193"><ele>1.0</ele><time>2026-03-22T22:34:17.999Z</time></trkpt><trkpt lat="25.06029227646587" lon="121.4486849046343"><ele>1.0</ele><time>2026-03-22T22:34:18.999Z</time></trkpt><trkpt lat="25.06026577673954" lon="121.4484889517542"><ele>1.0</ele><time>2026-03-22T22:34:19.999Z</time></trkpt><trkpt lat="25.060235613650505" lon="121.44830206498838"><ele>1.0</ele><time>2026-03-22T22:34:20.999Z</time></trkpt><trkpt lat="25.06019477844696" lon="121.44812386946919"><ele>1.0</ele><time>2026-03-22T22:34:21.999Z</time></trkpt><trkpt lat="25.060146237463695" lon="121.44795430099319"><ele>1.0</ele><time>2026-03-22T22:34:22.999Z</time></trkpt><trkpt lat="25.060086202881553" lon="121.44779067112789"><ele>1.75</ele><time>2026-03-22T22:34:23.999Z</time></trkpt><trkpt lat="25.06002170759325" lon="121.44763953169003"><ele>2.5</ele><time>2026-03-22T22:34:24.999Z</time></trkpt><trkpt lat="25.05995782530808" lon="121.44750654508505"><ele>3.25</ele><time>2026-03-22T22:34:25.999Z</time></trkpt><trkpt lat="25.059893101589676" lon="121.4473817437793"><ele>4.0</ele><time>2026-03-22T22:34:26.999Z</time></trkpt><trkpt lat="25.05983300172721" lon="121.44727240007369"><ele>3.75</ele><time>2026-03-22T22:34:27.999Z</time></trkpt><trkpt lat="25.059769102080853" lon="121.44715926532075"><ele>3.5</ele><time>2026-03-22T22:34:28.999Z</time></trkpt><trkpt lat="25.05970918888897" lon="121.44705327559531"><ele>3.25</ele><time>2026-03-22T22:34:29.999Z</time></trkpt><trkpt lat="25.05964980341987" lon="121.44694079694386"><ele>3.0</ele><time>2026-03-22T22:34:30.999Z</time></trkpt><trkpt lat="25.059751035143584" lon="121.44674338343759"><ele>3.0</ele><time>2026-03-22T22:34:31.999Z</time></trkpt><trkpt lat="25.05969755419909" lon="121.4466488959335"><ele>3.0</ele><time>2026-03-22T22:34:32.999Z</time></trkpt><trkpt lat="25.059648169497738" lon="121.44655691865478"><ele>3.0</ele><time>2026-03-22T22:34:33.999Z</time></trkpt><trkpt lat="25.05959853635524" lon="121.44646492537284"><ele>3.0</ele><time>2026-03-22T22:34:34.999Z</time></trkpt><trkpt lat="25.05955324449353" lon="121.44637740641451"><ele>3.0</ele><time>2026-03-22T22:34:35.999Z</time></trkpt><trkpt lat="25.059510016708092" lon="121.44629613595662"><ele>3.0</ele><time>2026-03-22T22:34:36.999Z</time></trkpt><trkpt lat="25.05946873136122" lon="121.44621781400774"><ele>3.0</ele><time>2026-03-22T22:34:37.999Z</time></trkpt><trkpt lat="25.059297229384086" lon="121.4462295727309"><ele>3.0</ele><time>2026-03-22T22:34:38.999Z</time></trkpt><trkpt lat="25.05926121940108" lon="121.44616405553319"><ele>3.0</ele><time>2026-03-22T22:34:39.999Z</time></trkpt><trkpt lat="25.059227615569693" lon="121.4461031450115"><ele>3.0</ele><time>2026-03-22T22:34:40.999Z</time></trkpt><trkpt lat="25.059192111815076" lon="121.4460387906788"><ele>3.0</ele><time>2026-03-22T22:34:41.999Z</time></trkpt><trkpt lat="25.059131371529723" lon="121.44592869244538"><ele>3.0</ele><time>2026-03-22T22:34:43.999Z</time></trkpt><trkpt lat="25.05907213408173" lon="121.44582041882569"><ele>3.0</ele><time>2026-03-22T22:34:45.999Z</time></trkpt><trkpt lat="25.059035450233164" lon="121.44575600992488"><ele>3.0</ele><time>2026-03-22T22:34:47.999Z</time></trkpt><trkpt lat="25.05899185568206" lon="121.4456817838013"><ele>3.0</ele><time>2026-03-22T22:34:50.999Z</time></trkpt><trkpt lat="25.05902814960043" lon="121.44574357952291"><ele>3.0</ele><time>2026-03-22T22:35:05.999Z</time></trkpt><trkpt lat="25.05906225699546" lon="121.44580232167266"><ele>3.1666666666666665</ele><time>2026-03-22T22:35:23Z</time></trkpt><trkpt lat="25.05902542708251" lon="121.44573894404057"><ele>3.333333333333333</ele><time>2026-03-22T22:35:29Z</time></trkpt><trkpt lat="25.058974373929473" lon="121.44565201855498"><ele>3.5</ele><time>2026-03-22T22:35:35Z</time></trkpt><trkpt lat="25.0589291935477" lon="121.44557509231448"><ele>3.6666666666666665</ele><time>2026-03-22T22:35:38Z</time></trkpt><trkpt lat="25.05886947203847" lon="121.4454734076614"><ele>3.833333333333333</ele><time>2026-03-22T22:35:41Z</time></trkpt><trkpt lat="25.058824550998402" lon="121.4453969229921"><ele>4.0</ele><time>2026-03-22T22:35:42Z</time></trkpt><trkpt lat="25.058765667621074" lon="121.44529720236375"><ele>5.0</ele><time>2026-03-22T22:35:43Z</time></trkpt><trkpt lat="25.058696781125523" lon="121.44518065960324"><ele>6.0</ele><time>2026-03-22T22:35:44Z</time></trkpt><trkpt lat="25.058596750564295" lon="121.4450114270399"><ele>7.0</ele><time>2026-03-22T22:35:45Z</time></trkpt><trkpt lat="25.05849397449521" lon="121.44483354947315"><ele>7.0</ele><time>2026-03-22T22:35:46Z</time></trkpt><trkpt lat="25.058390270893398" lon="121.44465508000134"><ele>7.0</ele><time>2026-03-22T22:35:47Z</time></trkpt><trkpt lat="25.05829343979591" lon="121.44448572332415"><ele>7.0</ele><time>2026-03-22T22:35:48Z</time></trkpt><trkpt lat="25.058187153907436" lon="121.44431003067818"><ele>5.666666666666667</ele><time>2026-03-22T22:35:49Z</time></trkpt><trkpt lat="25.058091831805722" lon="121.44415572192399"><ele>4.333333333333334</ele><time>2026-03-22T22:35:50Z</time></trkpt><trkpt lat="25.05796950825604" lon="121.44395720188561"><ele>3.0</ele><time>2026-03-22T22:35:51Z</time></trkpt><trkpt lat="25.057858186383903" lon="121.44377500002614"><ele>3.0</ele><time>2026-03-22T22:35:52Z</time></trkpt><trkpt lat="25.0577384572798" lon="121.44357430054339"><ele>3.0</ele><time>2026-03-22T22:35:53Z</time></trkpt><trkpt lat="25.057628566809402" lon="121.4433932138126"><ele>3.0</ele><time>2026-03-22T22:35:54Z</time></trkpt><trkpt lat="25.05752058279281" lon="121.44321607604047"><ele>3.666666666666667</ele><time>2026-03-22T22:35:55Z</time></trkpt><trkpt lat="25.057411790568008" lon="121.44304276219492"><ele>4.333333333333334</ele><time>2026-03-22T22:35:56Z</time></trkpt><trkpt lat="25.05730796511071" lon="121.44286918186911"><ele>5.0</ele><time>2026-03-22T22:35:57Z</time></trkpt><trkpt lat="25.05722687054372" lon="121.44269579192786"><ele>5.0</ele><time>2026-03-22T22:35:58Z</time></trkpt><trkpt lat="25.057104509316304" lon="121.44254125062106"><ele>5.0</ele><time>2026-03-22T22:35:59Z</time></trkpt><trkpt lat="25.056993121630153" lon="121.44237483236981"><ele>5.0</ele><time>2026-03-22T22:36:00Z</time></trkpt><trkpt lat="25.05684669744739" lon="121.44220174670576"><ele>5.0</ele><time>2026-03-22T22:36:01Z</time></trkpt><trkpt lat="25.056637111681624" lon="121.44213187122513"><ele>5.0</ele><time>2026-03-22T22:36:02Z</time></trkpt><trkpt lat="25.056485127208372" lon="121.44201935879671"><ele>5.0</ele><time>2026-03-22T22:36:03Z</time></trkpt><trkpt lat="25.05634327159263" lon="121.4419087152413"><ele>5.0</ele><time>2026-03-22T22:36:04Z</time></trkpt><trkpt lat="25.05620280271261" lon="121.44179661643298"><ele>5.0</ele><time>2026-03-22T22:36:05Z</time></trkpt><trkpt lat="25.056061574573505" lon="121.44169024680122"><ele>5.0</ele><time>2026-03-22T22:36:06Z</time></trkpt><trkpt lat="25.0559258919948" lon="121.4415843086676"><ele>5.0</ele><time>2026-03-22T22:36:07Z</time></trkpt><trkpt lat="25.055794641740263" lon="121.44148443915556"><ele>5.0</ele><time>2026-03-22T22:36:08Z</time></trkpt><trkpt lat="25.0556621348986" lon="121.44139398277123"><ele>5.0</ele><time>2026-03-22T22:36:09Z</time></trkpt><trkpt lat="25.05552705613053" lon="121.44129794950352"><ele>5.25</ele><time>2026-03-22T22:36:10Z</time></trkpt><trkpt lat="25.055400566762803" lon="121.44120370303358"><ele>5.5</ele><time>2026-03-22T22:36:11Z</time></trkpt><trkpt lat="25.055283624051377" lon="121.44112278543746"><ele>5.75</ele><time>2026-03-22T22:36:12Z</time></trkpt><trkpt lat="25.055166982901685" lon="121.44103690187262"><ele>6.0</ele><time>2026-03-22T22:36:13Z</time></trkpt><trkpt lat="25.05505569739111" lon="121.44094791798972"><ele>5.75</ele><time>2026-03-22T22:36:14Z</time></trkpt><trkpt lat="25.05494118383446" lon="121.4408563670479"><ele>5.5</ele><time>2026-03-22T22:36:15Z</time></trkpt><trkpt lat="25.05482960198984" lon="121.44077056347338"><ele>5.25</ele><time>2026-03-22T22:36:16Z</time></trkpt><trkpt lat="25.05472166694463" lon="121.44067996687511"><ele>5.0</ele><time>2026-03-22T22:36:17Z</time></trkpt><trkpt lat="25.05462539999931" lon="121.44060650331035"><ele>5.0</ele><time>2026-03-22T22:36:18Z</time></trkpt><trkpt lat="25.054522945310456" lon="121.44052881140694"><ele>5.0</ele><time>2026-03-22T22:36:19Z</time></trkpt><trkpt lat="25.054415956969606" lon="121.44045285029875"><ele>5.0</ele><time>2026-03-22T22:36:20Z</time></trkpt><trkpt lat="25.054327215078725" lon="121.4403867563346"><ele>5.0</ele><time>2026-03-22T22:36:21Z</time></trkpt><trkpt lat="25.054236589540064" lon="121.44031291305083"><ele>5.0</ele><time>2026-03-22T22:36:22Z</time></trkpt><trkpt lat="25.05420853524307" lon="121.44014913628786"><ele>5.0</ele><time>2026-03-22T22:36:23Z</time></trkpt><trkpt lat="25.05412146520169" lon="121.4400832701111"><ele>5.0</ele><time>2026-03-22T22:36:24Z</time></trkpt><trkpt lat="25.054036021582558" lon="121.44001863428394"><ele>5.0</ele><time>2026-03-22T22:36:25Z</time></trkpt><trkpt lat="25.053946380779603" lon="121.43995083623064"><ele>5.0</ele><time>2026-03-22T22:36:26Z</time></trkpt><trkpt lat="25.053868142466253" lon="121.43989146914781"><ele>5.0</ele><time>2026-03-22T22:36:27Z</time></trkpt><trkpt lat="25.053794627610188" lon="121.43983568621714"><ele>5.0</ele><time>2026-03-22T22:36:28Z</time></trkpt><trkpt lat="25.053723543746948" lon="121.43978174792052"><ele>5.0</ele><time>2026-03-22T22:36:29Z</time></trkpt><trkpt lat="25.05366593727138" lon="121.43973803623913"><ele>5.0</ele><time>2026-03-22T22:36:30Z</time></trkpt><trkpt lat="25.053606961531084" lon="121.43969328556197"><ele>5.0</ele><time>2026-03-22T22:36:31Z</time></trkpt><trkpt lat="25.053551582898873" lon="121.4396511424274"><ele>5.0</ele><time>2026-03-22T22:36:32Z</time></trkpt><trkpt lat="25.053453889625125" lon="121.43957641302941"><ele>5.0</ele><time>2026-03-22T22:36:34Z</time></trkpt><trkpt lat="25.053365857000077" lon="121.43950907343795"><ele>5.0</ele><time>2026-03-22T22:36:36Z</time></trkpt><trkpt lat="25.05327283143731" lon="121.43943791455472"><ele>5.0</ele><time>2026-03-22T22:36:38Z</time></trkpt><trkpt lat="25.05321957061398" lon="121.4393971221739"><ele>5.0</ele><time>2026-03-22T22:36:39Z</time></trkpt><trkpt lat="25.05313432040225" lon="121.43932399058737"><ele>4.5</ele><time>2026-03-22T22:36:41Z</time></trkpt><trkpt lat="25.05306987773491" lon="121.43928583555416"><ele>4.0</ele><time>2026-03-22T22:36:43Z</time></trkpt><trkpt lat="25.053006257445443" lon="121.4392269826871"><ele>3.5</ele><time>2026-03-22T22:36:45Z</time></trkpt><trkpt lat="25.05293160071027" lon="121.43917622580813"><ele>3.0</ele><time>2026-03-22T22:36:47Z</time></trkpt><trkpt lat="25.05287951799355" lon="121.43913686000839"><ele>2.5</ele><time>2026-03-22T22:36:49Z</time></trkpt><trkpt lat="25.052958086167152" lon="121.43919654231215"><ele>2.0</ele><time>2026-03-22T22:37:19Z</time></trkpt><trkpt lat="25.0530135852463" lon="121.43923911462892"><ele>2.0</ele><time>2026-03-22T22:37:23Z</time></trkpt><trkpt lat="25.05293959623864" lon="121.43918235904003"><ele>2.0</ele><time>2026-03-22T22:37:42.033Z</time></trkpt><trkpt lat="25.05257592551849" lon="121.43938453738805"><ele>2.0</ele><time>2026-03-22T22:37:44.031Z</time></trkpt><trkpt lat="25.05246549891478" lon="121.43938724138854"><ele>2.0</ele><time>2026-03-22T22:37:45.032Z</time></trkpt><trkpt lat="25.052369891350875" lon="121.43938593491549"><ele>2.0</ele><time>2026-03-22T22:37:46.035Z</time></trkpt><trkpt lat="25.052245807572955" lon="121.43934247364636"><ele>2.0</ele><time>2026-03-22T22:37:47.033Z</time></trkpt><trkpt lat="25.05207742436624" lon="121.43932557577645"><ele>2.2</ele><time>2026-03-22T22:37:51.034Z</time></trkpt><trkpt lat="25.052001888732075" lon="121.43927219582329"><ele>2.4000000000000004</ele><time>2026-03-22T22:37:53.032Z</time></trkpt><trkpt lat="25.052025033536776" lon="121.43913177453906"><ele>2.5999999999999996</ele><time>2026-03-22T22:38:00.032Z</time></trkpt><trkpt lat="25.052040382279085" lon="121.43905678221344"><ele>2.8</ele><time>2026-03-22T22:38:03.032Z</time></trkpt><trkpt lat="25.052055289330713" lon="121.43894449287326"><ele>3.0</ele><time>2026-03-22T22:38:04.035Z</time></trkpt><trkpt lat="25.051978135101738" lon="121.43895964054228"><ele>2.9999999999999996</ele><time>2026-03-22T22:38:08.033Z</time></trkpt><trkpt lat="25.051905750138072" lon="121.43899339561324"><ele>3.0</ele><time>2026-03-22T22:38:15.032Z</time></trkpt><trkpt lat="25.05184667209471" lon="121.4390458440415"><ele>3.0</ele><time>2026-03-22T22:38:21.031Z</time></trkpt><trkpt lat="25.051795394252256" lon="121.43908880348808"><ele>3.0</ele><time>2026-03-22T22:38:22.033Z</time></trkpt><trkpt lat="25.05174199839993" lon="121.43913318714377"><ele>3.0</ele><time>2026-03-22T22:38:24.033Z</time></trkpt><trkpt lat="25.051680488778366" lon="121.43917092076974"><ele>2.9999999999999996</ele><time>2026-03-22T22:38:26.032Z</time></trkpt><trkpt lat="25.051608502389183" lon="121.4391993675943"><ele>3.0</ele><time>2026-03-22T22:38:29.031Z</time></trkpt><trkpt lat="25.051537348423338" lon="121.43924130782612"><ele>3.0</ele><time>2026-03-22T22:38:31.032Z</time></trkpt><trkpt lat="25.051454691542006" lon="121.43930727773538"><ele>3.0</ele><time>2026-03-22T22:38:35.03Z</time></trkpt><trkpt lat="25.051314461746422" lon="121.43939784422258"><ele>3.0</ele><time>2026-03-22T22:38:37.029Z</time></trkpt><trkpt lat="25.05123518674683" lon="121.43946240265902"><ele>3.0</ele><time>2026-03-22T22:38:39.019Z</time></trkpt><trkpt lat="25.051212708318612" lon="121.43964051639311"><ele>3.0</ele><time>2026-03-22T22:38:41.02Z</time></trkpt><trkpt lat="25.051167799489168" lon="121.43971142823607"><ele>3.0</ele><time>2026-03-22T22:38:43.019Z</time></trkpt><trkpt lat="25.051123926046337" lon="121.43977086766827"><ele>3.0</ele><time>2026-03-22T22:38:44.02Z</time></trkpt><trkpt lat="25.040218175405528" lon="121.42947449199376"><ele>5.0</ele><time>2026-03-22T22:38:47Z</time></trkpt><trkpt lat="25.039966295424854" lon="121.42929471516544"><ele>7.0</ele><time>2026-03-22T22:38:48Z</time></trkpt><trkpt lat="25.039725065374178" lon="121.42912712179472"><ele>7.0</ele><time>2026-03-22T22:38:49Z</time></trkpt><trkpt lat="25.039539499436124" lon="121.42893041602531"><ele>7.0</ele><time>2026-03-22T22:38:50Z</time></trkpt><trkpt lat="25.03933963068693" lon="121.42877798996989"><ele>7.0</ele><time>2026-03-22T22:38:51Z</time></trkpt><trkpt lat="25.039166145949956" lon="121.42864561278608"><ele>7.0</ele><time>2026-03-22T22:38:52Z</time></trkpt><trkpt lat="25.038981013915812" lon="121.42850434815504"><ele>7.0</ele><time>2026-03-22T22:38:53Z</time></trkpt><trkpt lat="25.038789299659268" lon="121.42835831422177"><ele>6.0</ele><time>2026-03-22T22:38:54Z</time></trkpt><trkpt lat="25.038598351171515" lon="121.42821356057976"><ele>5.0</ele><time>2026-03-22T22:38:55Z</time></trkpt><trkpt lat="25.038408545716276" lon="121.4280679445059"><ele>5.5</ele><time>2026-03-22T22:38:56Z</time></trkpt><trkpt lat="25.038213875100272" lon="121.4279184088203"><ele>6.0</ele><time>2026-03-22T22:38:57Z</time></trkpt><trkpt lat="25.03802035946182" lon="121.42776976032825"><ele>6.0</ele><time>2026-03-22T22:38:58Z</time></trkpt><trkpt lat="25.03782817601482" lon="121.42762213515593"><ele>6.0</ele><time>2026-03-22T22:38:59Z</time></trkpt><trkpt lat="25.037635826197626" lon="121.42747438218527"><ele>6.666666666666666</ele><time>2026-03-22T22:39:00Z</time></trkpt><trkpt lat="25.03745167954206" lon="121.42733293045174"><ele>7.333333333333333</ele><time>2026-03-22T22:39:01Z</time></trkpt><trkpt lat="25.037270765297087" lon="121.42719397191497"><ele>8.0</ele><time>2026-03-22T22:39:02Z</time></trkpt><trkpt lat="25.037094116409314" lon="121.42705845418796"><ele>8.0</ele><time>2026-03-22T22:39:03Z</time></trkpt><trkpt lat="25.036913854825247" lon="121.42692005159213"><ele>8.0</ele><time>2026-03-22T22:39:04Z</time></trkpt><trkpt lat="25.036741410485114" lon="121.42678801610529"><ele>8.0</ele><time>2026-03-22T22:39:05Z</time></trkpt><trkpt lat="25.03656660373472" lon="121.42665386315348"><ele>7.666666666666666</ele><time>2026-03-22T22:39:06Z</time></trkpt><trkpt lat="25.036409761410855" lon="121.42651808704844"><ele>7.333333333333334</ele><time>2026-03-22T22:39:07Z</time></trkpt><trkpt lat="25.036256093696966" lon="121.42637537677494"><ele>7.0</ele><time>2026-03-22T22:39:08Z</time></trkpt><trkpt lat="25.036110523384007" lon="121.42622764644808"><ele>7.0</ele><time>2026-03-22T22:39:09Z</time></trkpt><trkpt lat="25.03595906981518" lon="121.42606797248303"><ele>7.0</ele><time>2026-03-22T22:39:10Z</time></trkpt><trkpt lat="25.035818536839944" lon="121.4259193392591"><ele>7.0</ele><time>2026-03-22T22:39:11Z</time></trkpt><trkpt lat="25.035673430908474" lon="121.42576606979935"><ele>7.0</ele><time>2026-03-22T22:39:12Z</time></trkpt><trkpt lat="25.035522724114077" lon="121.42560688355495"><ele>7.0</ele><time>2026-03-22T22:39:13Z</time></trkpt><trkpt lat="25.035374713051617" lon="121.42544923214186"><ele>7.0</ele><time>2026-03-22T22:39:14Z</time></trkpt><trkpt lat="25.035229439496103" lon="121.42529463838636"><ele>7.0</ele><time>2026-03-22T22:39:15Z</time></trkpt><trkpt lat="25.035081994988" lon="121.42513773439774"><ele>7.0</ele><time>2026-03-22T22:39:16Z</time></trkpt><trkpt lat="25.034935859297182" lon="121.4249822231957"><ele>7.0</ele><time>2026-03-22T22:39:17Z</time></trkpt><trkpt lat="25.03478259464481" lon="121.42481634685659"><ele>7.0</ele><time>2026-03-22T22:39:18Z</time></trkpt><trkpt lat="25.034675120175205" lon="121.424698323616"><ele>7.0</ele><time>2026-03-22T22:39:19Z</time></trkpt><trkpt lat="25.034564125997136" lon="121.42457560085575"><ele>7.0</ele><time>2026-03-22T22:39:20Z</time></trkpt><trkpt lat="25.03446922173458" lon="121.42446747821018"><ele>7.0</ele><time>2026-03-22T22:39:21Z</time></trkpt><trkpt lat="25.034374178707793" lon="121.42434479065112"><ele>7.333333333333334</ele><time>2026-03-22T22:39:22Z</time></trkpt><trkpt lat="25.03428123953223" lon="121.42421628863204"><ele>7.666666666666666</ele><time>2026-03-22T22:39:23Z</time></trkpt><trkpt lat="25.03418463442846" lon="121.42408008197016"><ele>8.0</ele><time>2026-03-22T22:39:24Z</time></trkpt><trkpt lat="25.034097803580064" lon="121.42395298077003"><ele>8.5</ele><time>2026-03-22T22:39:25Z</time></trkpt><trkpt lat="25.03403039769068" lon="121.42385400625678"><ele>9.0</ele><time>2026-03-22T22:39:26Z</time></trkpt><trkpt lat="25.03395967571531" lon="121.42375016261074"><ele>9.5</ele><time>2026-03-22T22:39:27Z</time></trkpt><trkpt lat="25.033890596036542" lon="121.42364873040988"><ele>10.0</ele><time>2026-03-22T22:39:28Z</time></trkpt><trkpt lat="25.033825485106643" lon="121.42355344193525"><ele>10.2</ele><time>2026-03-22T22:39:29Z</time></trkpt><trkpt lat="25.033768278956984" lon="121.42346971974001"><ele>10.4</ele><time>2026-03-22T22:39:30Z</time></trkpt><trkpt lat="25.033702907827575" lon="121.42337404795495"><ele>10.600000000000001</ele><time>2026-03-22T22:39:31Z</time></trkpt><trkpt lat="25.033648847440237" lon="121.42329492963505"><ele>10.8</ele><time>2026-03-22T22:39:32Z</time></trkpt><trkpt lat="25.03359380429505" lon="121.42321437303401"><ele>11.0</ele><time>2026-03-22T22:39:33Z</time></trkpt><trkpt lat="25.033535659685896" lon="121.42312927738618"><ele>11.0</ele><time>2026-03-22T22:39:34Z</time></trkpt><trkpt lat="25.03349298161308" lon="121.42306681728422"><ele>11.0</ele><time>2026-03-22T22:39:35Z</time></trkpt><trkpt lat="25.033445615908686" lon="121.42299749675234"><ele>11.0</ele><time>2026-03-22T22:39:36Z</time></trkpt><trkpt lat="25.033396831265698" lon="121.42292611786335"><ele>11.0</ele><time>2026-03-22T22:39:37Z</time></trkpt><trkpt lat="25.033335135252084" lon="121.4228358506672"><ele>11.0</ele><time>2026-03-22T22:39:38Z</time></trkpt><trkpt lat="25.033276329171077" lon="121.42274981172281"><ele>11.0</ele><time>2026-03-22T22:39:39Z</time></trkpt><trkpt lat="25.033226176125083" lon="121.42266375568742"><ele>11.166666666666666</ele><time>2026-03-22T22:39:40Z</time></trkpt><trkpt lat="25.033187360279214" lon="121.422579276384"><ele>11.333333333333332</ele><time>2026-03-22T22:39:41Z</time></trkpt><trkpt lat="25.033136503782583" lon="121.42250374473055"><ele>11.5</ele><time>2026-03-22T22:39:42Z</time></trkpt><trkpt lat="25.03307705685592" lon="121.42242951401862"><ele>11.666666666666666</ele><time>2026-03-22T22:39:43Z</time></trkpt><trkpt lat="25.03301616032831" lon="121.4223549595581"><ele>11.833333333333334</ele><time>2026-03-22T22:39:44Z</time></trkpt><trkpt lat="25.03297465762139" lon="121.42230173476563"><ele>12.0</ele><time>2026-03-22T22:39:45Z</time></trkpt><trkpt lat="25.032935937501442" lon="121.42224462375188"><ele>11.6</ele><time>2026-03-22T22:39:46Z</time></trkpt><trkpt lat="25.0328316999254" lon="121.42208580582664"><ele>11.2</ele><time>2026-03-22T22:39:48Z</time></trkpt><trkpt lat="25.03278916524096" lon="121.42201825333413"><ele>10.8</ele><time>2026-03-22T22:39:50Z</time></trkpt><trkpt lat="25.032735909073942" lon="121.42194116663582"><ele>10.4</ele><time>2026-03-22T22:39:52Z</time></trkpt><trkpt lat="25.032687739634667" lon="121.42187142417556"><ele>10.0</ele><time>2026-03-22T22:39:54Z</time></trkpt><trkpt lat="25.03264502593263" lon="121.42180904394698"><ele>13.0</ele><time>2026-03-22T22:39:56Z</time></trkpt><trkpt lat="25.032619114825827" lon="121.41922747784605"><ele>54.0</ele><time>2026-03-22T22:41:48.015Z</time></trkpt><trkpt lat="25.028737908391072" lon="121.40625405705202"><ele>54.0</ele><time>2026-03-22T22:42:18.001Z</time></trkpt><trkpt lat="25.02875645829127" lon="121.40611356316901"><ele>54.0</ele><time>2026-03-22T22:42:19.001Z</time></trkpt><trkpt lat="25.02877929346259" lon="121.40594905636642"><ele>54.0</ele><time>2026-03-22T22:42:20.001Z</time></trkpt><trkpt lat="25.028837304330665" lon="121.40581138093467"><ele>54.0</ele><time>2026-03-22T22:42:21.001Z</time></trkpt><trkpt lat="25.028891717196956" lon="121.40564966280337"><ele>56.0</ele><time>2026-03-22T22:42:22.001Z</time></trkpt><trkpt lat="25.028925883372313" lon="121.40548436629943"><ele>58.0</ele><time>2026-03-22T22:42:23.001Z</time></trkpt><trkpt lat="25.02890327227493" lon="121.40530465341135"><ele>60.0</ele><time>2026-03-22T22:42:24.001Z</time></trkpt><trkpt lat="25.02895091208799" lon="121.40515424489762"><ele>60.0</ele><time>2026-03-22T22:42:25.001Z</time></trkpt><trkpt lat="25.02897293792522" lon="121.40500478886109"><ele>60.0</ele><time>2026-03-22T22:42:26.001Z</time></trkpt><trkpt lat="25.02898406359169" lon="121.40485516166135"><ele>60.0</ele><time>2026-03-22T22:42:27.001Z</time></trkpt><trkpt lat="25.028990140210404" lon="121.4047048999336"><ele>60.0</ele><time>2026-03-22T22:42:28.001Z</time></trkpt><trkpt lat="25.02899055171214" lon="121.40455980216336"><ele>62.0</ele><time>2026-03-22T22:42:29.001Z</time></trkpt><trkpt lat="25.02899361913127" lon="121.40439716484504"><ele>64.0</ele><time>2026-03-22T22:42:30.001Z</time></trkpt><trkpt lat="25.02900797038028" lon="121.40422365969543"><ele>66.0</ele><time>2026-03-22T22:42:31.001Z</time></trkpt><trkpt lat="25.029037905109202" lon="121.40404285450309"><ele>66.0</ele><time>2026-03-22T22:42:32.001Z</time></trkpt><trkpt lat="25.0290762050276" lon="121.40386450391024"><ele>66.0</ele><time>2026-03-22T22:42:33.001Z</time></trkpt><trkpt lat="25.029142447639366" lon="121.40364417472925"><ele>66.0</ele><time>2026-03-22T22:42:34.001Z</time></trkpt><trkpt lat="25.029233813195468" lon="121.4034398109755"><ele>65.66666666666667</ele><time>2026-03-22T22:42:35.001Z</time></trkpt><trkpt lat="25.029332531039586" lon="121.40325596321674"><ele>65.33333333333334</ele><time>2026-03-22T22:42:36Z</time></trkpt><trkpt lat="25.029434455490623" lon="121.40308063117895"><ele>65.0</ele><time>2026-03-22T22:42:37Z</time></trkpt><trkpt lat="25.029502578371858" lon="121.40294719765862"><ele>66.0</ele><time>2026-03-22T22:42:38Z</time></trkpt><trkpt lat="25.029562814847235" lon="121.40279685062154"><ele>67.0</ele><time>2026-03-22T22:42:39Z</time></trkpt><trkpt lat="25.029590816336885" lon="121.40267346456748"><ele>68.0</ele><time>2026-03-22T22:42:40Z</time></trkpt><trkpt lat="25.02963252593187" lon="121.40248204508212"><ele>69.0</ele><time>2026-03-22T22:42:41Z</time></trkpt><trkpt lat="25.029673410086918" lon="121.40229247216554"><ele>74.66666666666667</ele><time>2026-03-22T22:42:42Z</time></trkpt><trkpt lat="25.0297135916786" lon="121.40210528829996"><ele>80.33333333333334</ele><time>2026-03-22T22:42:43Z</time></trkpt><trkpt lat="25.029754688643816" lon="121.40191194565851"><ele>86.0</ele><time>2026-03-22T22:42:44Z</time></trkpt><trkpt lat="25.029825708771632" lon="121.4017320768834"><ele>74.0</ele><time>2026-03-22T22:42:45Z</time></trkpt><trkpt lat="25.030507953361308" lon="121.40147719782718"><ele>74.0</ele><time>2026-03-22T22:42:46Z</time></trkpt><trkpt lat="25.03052527384949" lon="121.40137062974665"><ele>74.0</ele><time>2026-03-22T22:42:47Z</time></trkpt><trkpt lat="25.030608143990662" lon="121.40130501773203"><ele>74.0</ele><time>2026-03-22T22:42:48Z</time></trkpt><trkpt lat="25.030686129303923" lon="121.40117286997375"><ele>74.0</ele><time>2026-03-22T22:42:49Z</time></trkpt><trkpt lat="25.030741051012107" lon="121.40098217326577"><ele>75.0</ele><time>2026-03-22T22:42:50Z</time></trkpt><trkpt lat="25.030789334949723" lon="121.40079123753002"><ele>76.0</ele><time>2026-03-22T22:42:51Z</time></trkpt><trkpt lat="25.030826073170388" lon="121.40058209040168"><ele>77.0</ele><time>2026-03-22T22:42:52Z</time></trkpt><trkpt lat="25.030863983672088" lon="121.40038509324397"><ele>79.66666666666667</ele><time>2026-03-22T22:42:53Z</time></trkpt><trkpt lat="25.030908620955834" lon="121.40018941284734"><ele>82.33333333333333</ele><time>2026-03-22T22:42:54Z</time></trkpt><trkpt lat="25.03095147890848" lon="121.39998363883882"><ele>85.0</ele><time>2026-03-22T22:42:55Z</time></trkpt><trkpt lat="25.030997233699424" lon="121.39977320760076"><ele>86.33333333333333</ele><time>2026-03-22T22:42:56Z</time></trkpt><trkpt lat="25.031053474851348" lon="121.39955999834484"><ele>87.66666666666667</ele><time>2026-03-22T22:42:57Z</time></trkpt><trkpt lat="25.031149969139634" lon="121.39934665493095"><ele>89.0</ele><time>2026-03-22T22:42:58Z</time></trkpt><trkpt lat="25.031220138758965" lon="121.39914599969735"><ele>89.0</ele><time>2026-03-22T22:42:59Z</time></trkpt><trkpt lat="25.03128711062291" lon="121.39893844030264"><ele>89.0</ele><time>2026-03-22T22:43:00Z</time></trkpt><trkpt lat="25.031379397466562" lon="121.39874227870918"><ele>89.0</ele><time>2026-03-22T22:43:01Z</time></trkpt><trkpt lat="25.031355730141232" lon="121.398474347758"><ele>91.33333333333334</ele><time>2026-03-22T22:43:02Z</time></trkpt><trkpt lat="25.031472268342668" lon="121.398275370863"><ele>93.66666666666667</ele><time>2026-03-22T22:43:03Z</time></trkpt><trkpt lat="25.03158746459017" lon="121.39808199039652"><ele>96.0</ele><time>2026-03-22T22:43:04Z</time></trkpt><trkpt lat="25.031703422755577" lon="121.39788723062095"><ele>97.33333333333334</ele><time>2026-03-22T22:43:05Z</time></trkpt><trkpt lat="25.031821984904685" lon="121.39768873709188"><ele>98.66666666666667</ele><time>2026-03-22T22:43:06Z</time></trkpt><trkpt lat="25.031940484943917" lon="121.39749662655618"><ele>100.0</ele><time>2026-03-22T22:43:07Z</time></trkpt><trkpt lat="25.032057021822425" lon="121.3973055721951"><ele>103.66666666666667</ele><time>2026-03-22T22:43:08Z</time></trkpt><trkpt lat="25.032216905644066" lon="121.39711335834977"><ele>107.33333333333334</ele><time>2026-03-22T22:43:09Z</time></trkpt><trkpt lat="25.03238325642222" lon="121.39698278189823"><ele>111.0</ele><time>2026-03-22T22:43:10Z</time></trkpt><trkpt lat="25.03252101964096" lon="121.39680399137106"><ele>114.66666666666666</ele><time>2026-03-22T22:43:11Z</time></trkpt><trkpt lat="25.0326637497258" lon="121.39662230599667"><ele>118.33333333333333</ele><time>2026-03-22T22:43:12Z</time></trkpt><trkpt lat="25.03276497079915" lon="121.39640587424067"><ele>122.0</ele><time>2026-03-22T22:43:13Z</time></trkpt><trkpt lat="25.032836594398027" lon="121.39620439624136"><ele>124.66666666666666</ele><time>2026-03-22T22:43:14Z</time></trkpt><trkpt lat="25.032874263986873" lon="121.39600397756189"><ele>127.33333333333334</ele><time>2026-03-22T22:43:15Z</time></trkpt><trkpt lat="25.032927220815125" lon="121.39575878755485"><ele>130.0</ele><time>2026-03-22T22:43:16Z</time></trkpt><trkpt lat="25.03302911187384" lon="121.39554780978217"><ele>133.0</ele><time>2026-03-22T22:43:17Z</time></trkpt><trkpt lat="25.033140257987753" lon="121.39534487007498"><ele>136.0</ele><time>2026-03-22T22:43:18Z</time></trkpt><trkpt lat="25.033252293866884" lon="121.39514455663678"><ele>139.0</ele><time>2026-03-22T22:43:19Z</time></trkpt><trkpt lat="25.033340633150274" lon="121.39496954305653"><ele>139.0</ele><time>2026-03-22T22:43:20Z</time></trkpt><trkpt lat="25.0334061933689" lon="121.3947852966247"><ele>139.0</ele><time>2026-03-22T22:43:21Z</time></trkpt><trkpt lat="25.033521354894678" lon="121.39451267704548"><ele>146.0</ele><time>2026-03-22T22:43:22Z</time></trkpt><trkpt lat="25.03370492983924" lon="121.3942493311731"><ele>153.0</ele><time>2026-03-22T22:43:23Z</time></trkpt><trkpt lat="25.03392463669495" lon="121.39405781701073"><ele>153.0</ele><time>2026-03-22T22:43:24Z</time></trkpt><trkpt lat="25.03410216950458" lon="121.39393767857113"><ele>153.0</ele><time>2026-03-22T22:43:25Z</time></trkpt><trkpt lat="25.03426578287967" lon="121.39382707154299"><ele>153.0</ele><time>2026-03-22T22:43:26Z</time></trkpt><trkpt lat="25.034422865830237" lon="121.39371220416967"><ele>152.0</ele><time>2026-03-22T22:43:27Z</time></trkpt><trkpt lat="25.03457771399051" lon="121.39355958114048"><ele>151.0</ele><time>2026-03-22T22:43:28Z</time></trkpt><trkpt lat="25.034699203919445" lon="121.39339403221385"><ele>150.0</ele><time>2026-03-22T22:43:29Z</time></trkpt><trkpt lat="25.034851090674756" lon="121.39318995894158"><ele>152.33333333333334</ele><time>2026-03-22T22:43:30Z</time></trkpt><trkpt lat="25.03501192508718" lon="121.3930243332586"><ele>154.66666666666669</ele><time>2026-03-22T22:43:31Z</time></trkpt><trkpt lat="25.03514779322867" lon="121.3928656702045"><ele>157.0</ele><time>2026-03-22T22:43:32Z</time></trkpt><trkpt lat="25.03525382947679" lon="121.39269442234004"><ele>159.66666666666669</ele><time>2026-03-22T22:43:33Z</time></trkpt><trkpt lat="25.035336060899326" lon="121.39251887691566"><ele>162.33333333333334</ele><time>2026-03-22T22:43:34Z</time></trkpt><trkpt lat="25.035393505406407" lon="121.39238551045679"><ele>165.0</ele><time>2026-03-22T22:43:35Z</time></trkpt><trkpt lat="25.03560697982263" lon="121.39173911699538"><ele>168.5</ele><time>2026-03-22T22:43:38Z</time></trkpt><trkpt lat="25.035775971644863" lon="121.39142897215532"><ele>172.0</ele><time>2026-03-22T22:43:39Z</time></trkpt><trkpt lat="25.03591296668058" lon="121.39126924957687"><ele>172.0</ele><time>2026-03-22T22:43:40Z</time></trkpt><trkpt lat="25.03604119639894" lon="121.39112453509362"><ele>172.0</ele><time>2026-03-22T22:43:41Z</time></trkpt><trkpt lat="25.036109064681348" lon="121.3910455670564"><ele>172.0</ele><time>2026-03-22T22:43:42Z</time></trkpt><trkpt lat="25.036191925800118" lon="121.3909318566601"><ele>172.0</ele><time>2026-03-22T22:43:43Z</time></trkpt><trkpt lat="25.036270448384702" lon="121.39080657311753"><ele>172.0</ele><time>2026-03-22T22:43:44Z</time></trkpt><trkpt lat="25.036354208064886" lon="121.3906690403398"><ele>172.0</ele><time>2026-03-22T22:43:45Z</time></trkpt><trkpt lat="25.036436729953845" lon="121.39052834714076"><ele>172.0</ele><time>2026-03-22T22:43:46Z</time></trkpt><trkpt lat="25.03652467457206" lon="121.3903612280344"><ele>176.33333333333334</ele><time>2026-03-22T22:43:47Z</time></trkpt><trkpt lat="25.03659881332026" lon="121.39019803196874"><ele>180.66666666666666</ele><time>2026-03-22T22:43:48.084Z</time></trkpt><trkpt lat="25.036724977925743" lon="121.39004949598636"><ele>185.0</ele><time>2026-03-22T22:43:49.072Z</time></trkpt><trkpt lat="25.036795715689262" lon="121.38984272663485"><ele>253.0</ele><time>2026-03-22T22:43:50.063Z</time></trkpt><trkpt lat="25.052938192203747" lon="121.37841512855245"><ele>253.0</ele><time>2026-03-22T22:47:30.001Z</time></trkpt><trkpt lat="25.05320735899449" lon="121.37810815134843"><ele>253.0</ele><time>2026-03-22T22:47:31.001Z</time></trkpt><trkpt lat="25.05331778548252" lon="121.37798657495641"><ele>253.66666666666666</ele><time>2026-03-22T22:47:32.001Z</time></trkpt><trkpt lat="25.053452258677847" lon="121.37786755724557"><ele>254.33333333333331</ele><time>2026-03-22T22:47:33.001Z</time></trkpt><trkpt lat="25.05356217031068" lon="121.37775305644553"><ele>255.0</ele><time>2026-03-22T22:47:34.001Z</time></trkpt><trkpt lat="25.053707733576935" lon="121.37760221726734"><ele>255.0</ele><time>2026-03-22T22:47:35Z</time></trkpt><trkpt lat="25.053867006960466" lon="121.37744335691903"><ele>255.0</ele><time>2026-03-22T22:47:36Z</time></trkpt><trkpt lat="25.054035094265522" lon="121.3772798808018"><ele>255.0</ele><time>2026-03-22T22:47:37Z</time></trkpt><trkpt lat="25.054216191158538" lon="121.3771021578736"><ele>254.5</ele><time>2026-03-22T22:47:38Z</time></trkpt><trkpt lat="25.054386699513262" lon="121.37693475953147"><ele>254.0</ele><time>2026-03-22T22:47:39Z</time></trkpt><trkpt lat="25.05455963351196" lon="121.37675812393779"><ele>254.0</ele><time>2026-03-22T22:47:40Z</time></trkpt><trkpt lat="25.054717847837807" lon="121.37659102934921"><ele>254.0</ele><time>2026-03-22T22:47:41Z</time></trkpt><trkpt lat="25.054893481946266" lon="121.37641044500936"><ele>253.0</ele><time>2026-03-22T22:47:42Z</time></trkpt><trkpt lat="25.055066577566897" lon="121.37623854315177"><ele>252.0</ele><time>2026-03-22T22:47:43Z</time></trkpt><trkpt lat="25.05523148597399" lon="121.37607023442328"><ele>252.0</ele><time>2026-03-22T22:47:44Z</time></trkpt><trkpt lat="25.055393106008154" lon="121.37590190376362"><ele>252.0</ele><time>2026-03-22T22:47:45Z</time></trkpt><trkpt lat="25.05556782009373" lon="121.37571828783585"><ele>252.0</ele><time>2026-03-22T22:47:46Z</time></trkpt><trkpt lat="25.055730763005585" lon="121.37554621200316"><ele>252.0</ele><time>2026-03-22T22:47:47Z</time></trkpt><trkpt lat="25.055910555164594" lon="121.37535663733195"><ele>252.0</ele><time>2026-03-22T22:47:48Z</time></trkpt><trkpt lat="25.05607156303529" lon="121.3751840270079"><ele>252.0</ele><time>2026-03-22T22:47:49Z</time></trkpt><trkpt lat="25.05622549287281" lon="121.37502030404981"><ele>252.0</ele><time>2026-03-22T22:47:50Z</time></trkpt><trkpt lat="25.05637516278798" lon="121.37486631778843"><ele>252.0</ele><time>2026-03-22T22:47:51Z</time></trkpt><trkpt lat="25.056548853838603" lon="121.3746883448086"><ele>252.0</ele><time>2026-03-22T22:47:52Z</time></trkpt><trkpt lat="25.05668974026666" lon="121.37454412830125"><ele>252.0</ele><time>2026-03-22T22:47:53Z</time></trkpt><trkpt lat="25.05681747039047" lon="121.37441016562742"><ele>252.33333333333331</ele><time>2026-03-22T22:47:54Z</time></trkpt><trkpt lat="25.056967320782185" lon="121.37427227778795"><ele>252.66666666666666</ele><time>2026-03-22T22:47:55Z</time></trkpt><trkpt lat="25.057113365169535" lon="121.37412493108222"><ele>253.0</ele><time>2026-03-22T22:47:56Z</time></trkpt><trkpt lat="25.057235263324568" lon="121.37400272633651"><ele>253.0</ele><time>2026-03-22T22:47:57Z</time></trkpt><trkpt lat="25.057352008564983" lon="121.37388398464628"><ele>253.0</ele><time>2026-03-22T22:47:58Z</time></trkpt><trkpt lat="25.057465881793107" lon="121.37376729132092"><ele>253.0</ele><time>2026-03-22T22:47:59Z</time></trkpt><trkpt lat="25.057576189717352" lon="121.3736529289028"><ele>253.75</ele><time>2026-03-22T22:48:00Z</time></trkpt><trkpt lat="25.05768250055678" lon="121.37355317247666"><ele>254.5</ele><time>2026-03-22T22:48:01Z</time></trkpt><trkpt lat="25.057784202761" lon="121.37345234218533"><ele>255.25</ele><time>2026-03-22T22:48:02Z</time></trkpt><trkpt lat="25.057875533802207" lon="121.37335043359377"><ele>256.0</ele><time>2026-03-22T22:48:03Z</time></trkpt><trkpt lat="25.057970489471664" lon="121.3732515091742"><ele>256.0</ele><time>2026-03-22T22:48:04Z</time></trkpt><trkpt lat="25.058069314781203" lon="121.37315698059004"><ele>256.0</ele><time>2026-03-22T22:48:05Z</time></trkpt><trkpt lat="25.05816196823355" lon="121.37305024396156"><ele>256.0</ele><time>2026-03-22T22:48:06Z</time></trkpt><trkpt lat="25.058267387824472" lon="121.37294666883876"><ele>256.0</ele><time>2026-03-22T22:48:07Z</time></trkpt><trkpt lat="25.058352504790353" lon="121.37288354517773"><ele>255.60000000000002</ele><time>2026-03-22T22:48:08Z</time></trkpt><trkpt lat="25.058438703261736" lon="121.3727885834879"><ele>255.20000000000002</ele><time>2026-03-22T22:48:09Z</time></trkpt><trkpt lat="25.05853515574373" lon="121.37272796395457"><ele>254.79999999999998</ele><time>2026-03-22T22:48:10Z</time></trkpt><trkpt lat="25.05859533340432" lon="121.37267598156737"><ele>254.39999999999998</ele><time>2026-03-22T22:48:11Z</time></trkpt><trkpt lat="25.05865368981091" lon="121.37260666738985"><ele>254.0</ele><time>2026-03-22T22:48:12Z</time></trkpt><trkpt lat="25.05870891833677" lon="121.37255684336681"><ele>254.0</ele><time>2026-03-22T22:48:13Z</time></trkpt><trkpt lat="25.058799922658384" lon="121.372471464967"><ele>253.99999999999997</ele><time>2026-03-22T22:48:15Z</time></trkpt><trkpt lat="25.05890296771268" lon="121.37237484786846"><ele>253.99999999999997</ele><time>2026-03-22T22:48:17Z</time></trkpt><trkpt lat="25.058944365832467" lon="121.37231947007432"><ele>254.0</ele><time>2026-03-22T22:48:18Z</time></trkpt><trkpt lat="25.059028695062818" lon="121.37222437920776"><ele>254.0</ele><time>2026-03-22T22:48:20Z</time></trkpt><trkpt lat="25.059120099472516" lon="121.37214871922471"><ele>254.2</ele><time>2026-03-22T22:48:22Z</time></trkpt><trkpt lat="25.059192620305364" lon="121.37207180659796"><ele>254.39999999999998</ele><time>2026-03-22T22:48:24Z</time></trkpt><trkpt lat="25.05927671421243" lon="121.37200925946343"><ele>254.6</ele><time>2026-03-22T22:48:26Z</time></trkpt><trkpt lat="25.05933369361885" lon="121.37193338473274"><ele>254.8</ele><time>2026-03-22T22:48:28Z</time></trkpt><trkpt lat="25.059414186753965" lon="121.37185770504676"><ele>255.0</ele><time>2026-03-22T22:48:30Z</time></trkpt><trkpt lat="25.059492213499524" lon="121.37179883437544"><ele>255.0</ele><time>2026-03-22T22:48:32Z</time></trkpt><trkpt lat="25.05956957145486" lon="121.37171772629979"><ele>255.0</ele><time>2026-03-22T22:48:34Z</time></trkpt><trkpt lat="25.059654557380696" lon="121.37165138860749"><ele>255.0</ele><time>2026-03-22T22:48:36Z</time></trkpt><trkpt lat="25.059724234921873" lon="121.37159249568616"><ele>255.0</ele><time>2026-03-22T22:48:38Z</time></trkpt><trkpt lat="25.05979529765585" lon="121.3715456714735"><ele>255.0</ele><time>2026-03-22T22:48:40Z</time></trkpt><trkpt lat="25.059872554643672" lon="121.37148990930126"><ele>255.0</ele><time>2026-03-22T22:48:42Z</time></trkpt><trkpt lat="25.059947350775868" lon="121.37141733255746"><ele>255.0</ele><time>2026-03-22T22:48:44Z</time></trkpt><trkpt lat="25.060016619839036" lon="121.37133166142449"><ele>255.0</ele><time>2026-03-22T22:48:46Z</time></trkpt><trkpt lat="25.060099396055218" lon="121.37125494200102"><ele>255.0</ele><time>2026-03-22T22:48:48Z</time></trkpt><trkpt lat="25.060180645995935" lon="121.37117970868775"><ele>255.0</ele><time>2026-03-22T22:48:50Z</time></trkpt><trkpt lat="25.060262541954092" lon="121.37111241677256"><ele>254.6</ele><time>2026-03-22T22:48:52Z</time></trkpt><trkpt lat="25.060333076213734" lon="121.37104445948299"><ele>254.2</ele><time>2026-03-22T22:48:54Z</time></trkpt><trkpt lat="25.060440528436274" lon="121.37093150795535"><ele>253.8</ele><time>2026-03-22T22:48:57Z</time></trkpt><trkpt lat="25.060521501561468" lon="121.37085891459371"><ele>253.4</ele><time>2026-03-22T22:48:59Z</time></trkpt><trkpt lat="25.06056787468197" lon="121.3707954594071"><ele>253.0</ele><time>2026-03-22T22:49:01Z</time></trkpt><trkpt lat="25.060611039528194" lon="121.37074452397867"><ele>253.0</ele><time>2026-03-22T22:49:04Z</time></trkpt><trkpt lat="25.060664659422137" lon="121.37068943780197"><ele>253.0</ele><time>2026-03-22T22:49:12Z</time></trkpt><trkpt lat="25.06058632652417" lon="121.37056693087963"><ele>253.0</ele><time>2026-03-22T22:52:00.009Z</time></trkpt><trkpt lat="25.06080121141687" lon="121.37017059238396"><ele>253.0</ele><time>2026-03-22T22:52:30.013Z</time></trkpt><trkpt lat="25.060928547919474" lon="121.36993519749751"><ele>253.0</ele><time>2026-03-22T22:52:51.116Z</time></trkpt><trkpt lat="25.061185344842002" lon="121.37024473048322"><ele>253.0</ele><time>2026-03-22T22:53:52.001Z</time></trkpt><trkpt lat="25.061372130519143" lon="121.37012431515731"><ele>253.0</ele><time>2026-03-22T22:53:55.001Z</time></trkpt><trkpt lat="25.06143810803002" lon="121.37007767297054"><ele>253.0</ele><time>2026-03-22T22:53:57.001Z</time></trkpt><trkpt lat="25.061493110655398" lon="121.37004045098857"><ele>253.0</ele><time>2026-03-22T22:53:58.001Z</time></trkpt><trkpt lat="25.061589883019195" lon="121.36997490921446"><ele>252.8</ele><time>2026-03-22T22:54:00.001Z</time></trkpt><trkpt lat="25.061645982674925" lon="121.36993762813455"><ele>252.60000000000002</ele><time>2026-03-22T22:54:01.001Z</time></trkpt><trkpt lat="25.06175339607595" lon="121.36986778180027"><ele>252.39999999999998</ele><time>2026-03-22T22:54:03.001Z</time></trkpt><trkpt lat="25.061853965299665" lon="121.36980866242823"><ele>252.2</ele><time>2026-03-22T22:54:05Z</time></trkpt><trkpt lat="25.0619527189371" lon="121.3697555761355"><ele>252.0</ele><time>2026-03-22T22:54:07Z</time></trkpt><trkpt lat="25.062050728671935" lon="121.36969881085159"><ele>252.2</ele><time>2026-03-22T22:54:09Z</time></trkpt><trkpt lat="25.062153397254466" lon="121.36964015981793"><ele>252.39999999999998</ele><time>2026-03-22T22:54:11Z</time></trkpt><trkpt lat="25.062210117312407" lon="121.3696079454543"><ele>252.60000000000002</ele><time>2026-03-22T22:54:12Z</time></trkpt><trkpt lat="25.06226782078182" lon="121.36957516687076"><ele>252.8</ele><time>2026-03-22T22:54:13Z</time></trkpt><trkpt lat="25.062377648730408" lon="121.36951537264305"><ele>253.0</ele><time>2026-03-22T22:54:15Z</time></trkpt><trkpt lat="25.062480960153827" lon="121.36946283205076"><ele>253.0</ele><time>2026-03-22T22:54:17Z</time></trkpt><trkpt lat="25.062578902515725" lon="121.36941643408863"><ele>253.0</ele><time>2026-03-22T22:54:19Z</time></trkpt><trkpt lat="25.06267048291511" lon="121.36937525082567"><ele>253.0</ele><time>2026-03-22T22:54:21Z</time></trkpt><trkpt lat="25.06276472856153" lon="121.36933445060143"><ele>253.0</ele><time>2026-03-22T22:54:23Z</time></trkpt><trkpt lat="25.062875592117198" lon="121.36928664306053"><ele>253.0</ele><time>2026-03-22T22:54:25Z</time></trkpt><trkpt lat="25.062937298804332" lon="121.3692617547236"><ele>253.0</ele><time>2026-03-22T22:54:26Z</time></trkpt><trkpt lat="25.06301338110379" lon="121.3692305718626"><ele>253.0</ele><time>2026-03-22T22:54:27Z</time></trkpt><trkpt lat="25.06310111649886" lon="121.36919687322026"><ele>253.0</ele><time>2026-03-22T22:54:28Z</time></trkpt><trkpt lat="25.063186468021215" lon="121.36916419358708"><ele>253.0</ele><time>2026-03-22T22:54:29Z</time></trkpt><trkpt lat="25.06327982247132" lon="121.36913095539771"><ele>253.0</ele><time>2026-03-22T22:54:30Z</time></trkpt><trkpt lat="25.063382705127324" lon="121.36909387507303"><ele>253.4</ele><time>2026-03-22T22:54:31Z</time></trkpt><trkpt lat="25.063472883842422" lon="121.36906226349141"><ele>253.8</ele><time>2026-03-22T22:54:32Z</time></trkpt><trkpt lat="25.063570089516944" lon="121.36902795962385"><ele>254.2</ele><time>2026-03-22T22:54:33Z</time></trkpt><trkpt lat="25.06365958060141" lon="121.36898620581238"><ele>254.6</ele><time>2026-03-22T22:54:34Z</time></trkpt><trkpt lat="25.063740885672573" lon="121.36894738657915"><ele>255.0</ele><time>2026-03-22T22:54:35Z</time></trkpt><trkpt lat="25.06382366470129" lon="121.36890171964684"><ele>254.5</ele><time>2026-03-22T22:54:36Z</time></trkpt><trkpt lat="25.063921500441264" lon="121.36884620684808"><ele>254.0</ele><time>2026-03-22T22:54:37Z</time></trkpt><trkpt lat="25.063843933265552" lon="121.3680733629345"><ele>253.5</ele><time>2026-03-22T22:54:38Z</time></trkpt><trkpt lat="25.063923035523526" lon="121.36795618831603"><ele>253.0</ele><time>2026-03-22T22:54:39Z</time></trkpt><trkpt lat="25.06400339179783" lon="121.36783894993526"><ele>252.5</ele><time>2026-03-22T22:54:40Z</time></trkpt><trkpt lat="25.064086858561247" lon="121.36772241672138"><ele>252.0</ele><time>2026-03-22T22:54:41Z</time></trkpt><trkpt lat="25.064168689081217" lon="121.36760323446909"><ele>252.0</ele><time>2026-03-22T22:54:42Z</time></trkpt><trkpt lat="25.064248228548802" lon="121.3674837428702"><ele>252.0</ele><time>2026-03-22T22:54:43Z</time></trkpt><trkpt lat="25.064327938714793" lon="121.36736548422914"><ele>252.0</ele><time>2026-03-22T22:54:44Z</time></trkpt><trkpt lat="25.064408085984294" lon="121.36724987672892"><ele>252.0</ele><time>2026-03-22T22:54:45Z</time></trkpt><trkpt lat="25.064486984015517" lon="121.36713421214809"><ele>251.0</ele><time>2026-03-22T22:54:46Z</time></trkpt><trkpt lat="25.06456514734866" lon="121.36701848598591"><ele>250.0</ele><time>2026-03-22T22:54:47Z</time></trkpt><trkpt lat="25.064639641194017" lon="121.36689687505766"><ele>249.0</ele><time>2026-03-22T22:54:48Z</time></trkpt><trkpt lat="25.06471220145263" lon="121.36677858187173"><ele>248.0</ele><time>2026-03-22T22:54:49Z</time></trkpt><trkpt lat="25.064778681434685" lon="121.36666595444825"><ele>248.0</ele><time>2026-03-22T22:54:50Z</time></trkpt><trkpt lat="25.06485058164261" lon="121.36656539997601"><ele>248.0</ele><time>2026-03-22T22:54:51Z</time></trkpt><trkpt lat="25.06491260342323" lon="121.36646618155477"><ele>248.0</ele><time>2026-03-22T22:54:52Z</time></trkpt><trkpt lat="25.0649686038125" lon="121.3663498509781"><ele>248.0</ele><time>2026-03-22T22:54:53Z</time></trkpt><trkpt lat="25.06502548384894" lon="121.36623889164507"><ele>247.0</ele><time>2026-03-22T22:54:54Z</time></trkpt><trkpt lat="25.065066860038026" lon="121.36611563689559"><ele>246.0</ele><time>2026-03-22T22:54:55Z</time></trkpt><trkpt lat="25.06513957634876" lon="121.36596752849775"><ele>245.0</ele><time>2026-03-22T22:54:56Z</time></trkpt><trkpt lat="25.065198208358222" lon="121.36582117135617"><ele>244.0</ele><time>2026-03-22T22:54:57Z</time></trkpt><trkpt lat="25.065246597849796" lon="121.36568855379183"><ele>244.0</ele><time>2026-03-22T22:54:58Z</time></trkpt><trkpt lat="25.06530560590137" lon="121.36554962522828"><ele>244.0</ele><time>2026-03-22T22:54:59Z</time></trkpt><trkpt lat="25.06536278174638" lon="121.36540766965173"><ele>244.0</ele><time>2026-03-22T22:55:00Z</time></trkpt><trkpt lat="25.0654083779768" lon="121.36527101519599"><ele>244.0</ele><time>2026-03-22T22:55:01Z</time></trkpt><trkpt lat="25.065455829226366" lon="121.36512802922459"><ele>245.5</ele><time>2026-03-22T22:55:02Z</time></trkpt><trkpt lat="25.06549914133034" lon="121.36498702248622"><ele>247.0</ele><time>2026-03-22T22:55:03Z</time></trkpt><trkpt lat="25.065544024762023" lon="121.36484812506859"><ele>248.5</ele><time>2026-03-22T22:55:04Z</time></trkpt><trkpt lat="25.065588720734393" lon="121.36471828717563"><ele>250.0</ele><time>2026-03-22T22:55:05Z</time></trkpt><trkpt lat="25.06563257854967" lon="121.36459580511661"><ele>250.0</ele><time>2026-03-22T22:55:06Z</time></trkpt><trkpt lat="25.06566101156936" lon="121.36447313989864"><ele>250.0</ele><time>2026-03-22T22:55:07Z</time></trkpt><trkpt lat="25.06572751568357" lon="121.3643823020868"><ele>250.0</ele><time>2026-03-22T22:55:08Z</time></trkpt><trkpt lat="25.06574069068368" lon="121.36428450267232"><ele>250.0</ele><time>2026-03-22T22:55:09Z</time></trkpt><trkpt lat="25.065760952222384" lon="121.36418584618117"><ele>250.0</ele><time>2026-03-22T22:55:10Z</time></trkpt><trkpt lat="25.06577445593385" lon="121.36410328226629"><ele>250.85714285714283</ele><time>2026-03-22T22:55:11Z</time></trkpt><trkpt lat="25.065788126388174" lon="121.36401725755267"><ele>251.71428571428572</ele><time>2026-03-22T22:55:12Z</time></trkpt><trkpt lat="25.06579783521214" lon="121.36394234567159"><ele>252.57142857142856</ele><time>2026-03-22T22:55:13Z</time></trkpt><trkpt lat="25.06579777019311" lon="121.36387193831735"><ele>253.42857142857142</ele><time>2026-03-22T22:55:14Z</time></trkpt><trkpt lat="25.06581286232166" lon="121.36378989874578"><ele>254.28571428571428</ele><time>2026-03-22T22:55:15Z</time></trkpt><trkpt lat="25.065815170794796" lon="121.36371285160064"><ele>255.14285714285714</ele><time>2026-03-22T22:55:16Z</time></trkpt><trkpt lat="25.065824852256338" lon="121.36364059587842"><ele>256.0</ele><time>2026-03-22T22:55:17Z</time></trkpt><trkpt lat="25.065804396038388" lon="121.36350053441734"><ele>255.99999999999997</ele><time>2026-03-22T22:55:19Z</time></trkpt><trkpt lat="25.065796896236247" lon="121.36343144219998"><ele>256.0</ele><time>2026-03-22T22:55:20Z</time></trkpt><trkpt lat="25.06580273370479" lon="121.36329441283137"><ele>256.0</ele><time>2026-03-22T22:55:22Z</time></trkpt><trkpt lat="25.06581083071324" lon="121.36316167253182"><ele>256.0</ele><time>2026-03-22T22:55:24Z</time></trkpt><trkpt lat="25.06580494228424" lon="121.36308899070147"><ele>255.99999999999997</ele><time>2026-03-22T22:55:25Z</time></trkpt><trkpt lat="25.065802027091653" lon="121.36300951694449"><ele>256.0</ele><time>2026-03-22T22:55:26Z</time></trkpt><trkpt lat="25.065805825727736" lon="121.3628699357771"><ele>256.40000000000003</ele><time>2026-03-22T22:55:28Z</time></trkpt><trkpt lat="25.06581413089496" lon="121.36274147825578"><ele>256.8</ele><time>2026-03-22T22:55:30Z</time></trkpt><trkpt lat="25.065810937279657" lon="121.36262413514946"><ele>257.20000000000005</ele><time>2026-03-22T22:55:32Z</time></trkpt><trkpt lat="25.065812171630732" lon="121.36250573581833"><ele>257.6</ele><time>2026-03-22T22:55:34Z</time></trkpt><trkpt lat="25.06583250638343" lon="121.36238912897454"><ele>258.0</ele><time>2026-03-22T22:55:36Z</time></trkpt><trkpt lat="25.065849503865593" lon="121.362270913037"><ele>258.5</ele><time>2026-03-22T22:55:38Z</time></trkpt><trkpt lat="25.065858224819273" lon="121.36215255651129"><ele>259.0</ele><time>2026-03-22T22:55:40Z</time></trkpt><trkpt lat="25.06586482717092" lon="121.36202324069826"><ele>259.5</ele><time>2026-03-22T22:55:42Z</time></trkpt><trkpt lat="25.065858291691324" lon="121.36189919253586"><ele>260.0</ele><time>2026-03-22T22:55:44Z</time></trkpt><trkpt lat="25.065872071643973" lon="121.36177549155086"><ele>260.0</ele><time>2026-03-22T22:55:46Z</time></trkpt><trkpt lat="25.065891616142725" lon="121.36165805912523"><ele>260.0</ele><time>2026-03-22T22:55:48Z</time></trkpt><trkpt lat="25.065913203687195" lon="121.3615501933061"><ele>260.0</ele><time>2026-03-22T22:55:50Z</time></trkpt><trkpt lat="25.065944369079745" lon="121.36146047664236"><ele>260.0</ele><time>2026-03-22T22:55:52Z</time></trkpt><trkpt lat="25.065968734163512" lon="121.36137903785185"><ele>260.0</ele><time>2026-03-22T22:55:54Z</time></trkpt><trkpt lat="25.065963897244952" lon="121.36128631772297"><ele>259.33333333333337</ele><time>2026-03-22T22:55:56Z</time></trkpt><trkpt lat="25.065956291778736" lon="121.36119767330048"><ele>258.6666666666667</ele><time>2026-03-22T22:55:59Z</time></trkpt><trkpt lat="25.065994819034565" lon="121.3611008781928"><ele>258.0</ele><time>2026-03-22T22:56:01Z</time></trkpt><trkpt lat="25.066020572798497" lon="121.36101959423911"><ele>257.3333333333333</ele><time>2026-03-22T22:56:03Z</time></trkpt><trkpt lat="25.066080364430395" lon="121.36097248818828"><ele>256.66666666666663</ele><time>2026-03-22T22:56:05Z</time></trkpt><trkpt lat="25.06613607423664" lon="121.36091254960675"><ele>256.0</ele><time>2026-03-22T22:56:07Z</time></trkpt><trkpt lat="25.066195549521073" lon="121.3608312271702"><ele>255.99999999999997</ele><time>2026-03-22T22:56:11Z</time></trkpt><trkpt lat="25.066232378384782" lon="121.36077041653694"><ele>256.0</ele><time>2026-03-22T22:56:13Z</time></trkpt><trkpt lat="25.06627109863601" lon="121.36071023150437"><ele>256.0</ele><time>2026-03-22T22:56:16Z</time></trkpt><trkpt lat="25.06622880344066" lon="121.3607828002672"><ele>256.0</ele><time>2026-03-22T22:56:23Z</time></trkpt><trkpt lat="25.06615907510214" lon="121.360861070018"><ele>255.99999999999997</ele><time>2026-03-22T22:56:27Z</time></trkpt><trkpt lat="25.066198409409292" lon="121.36091867690794"><ele>256.0</ele><time>2026-03-22T22:56:30Z</time></trkpt><trkpt lat="25.066124492431374" lon="121.36092785975104"><ele>256.0</ele><time>2026-03-22T22:56:35Z</time></trkpt><trkpt lat="25.066046183530887" lon="121.36089983244567"><ele>256.0</ele><time>2026-03-22T22:56:38Z</time></trkpt><trkpt lat="25.06591847198154" lon="121.36084608334505"><ele>256.0</ele><time>2026-03-22T22:56:41Z</time></trkpt><trkpt lat="25.065940101977805" lon="121.36073434810149"><ele>256.0</ele><time>2026-03-22T22:56:43Z</time></trkpt><trkpt lat="25.065852897610302" lon="121.36071880052921"><ele>256.0</ele><time>2026-03-22T22:56:44Z</time></trkpt><trkpt lat="25.065855693429885" lon="121.36061016568078"><ele>256.2</ele><time>2026-03-22T22:56:48Z</time></trkpt><trkpt lat="25.06586095788478" lon="121.36051754481181"><ele>256.40000000000003</ele><time>2026-03-22T22:56:50Z</time></trkpt><trkpt lat="25.06587106086897" lon="121.36041930125302"><ele>256.6</ele><time>2026-03-22T22:56:52Z</time></trkpt><trkpt lat="25.065863280593494" lon="121.36031514339058"><ele>256.8</ele><time>2026-03-22T22:56:54Z</time></trkpt><trkpt lat="25.065865779890775" lon="121.36021779064443"><ele>257.0</ele><time>2026-03-22T22:56:56Z</time></trkpt><trkpt lat="25.0658684995566" lon="121.36011185408637"><ele>257.0</ele><time>2026-03-22T22:56:58Z</time></trkpt><trkpt lat="25.065870993422543" lon="121.36001471290497"><ele>257.0</ele><time>2026-03-22T22:57:00Z</time></trkpt><trkpt lat="25.06587304881216" lon="121.35992793852235"><ele>257.0</ele><time>2026-03-22T22:57:02Z</time></trkpt><trkpt lat="25.065871487946723" lon="121.35982007582085"><ele>257.0</ele><time>2026-03-22T22:57:04Z</time></trkpt><trkpt lat="25.065885934470003" lon="121.35975092175984"><ele>257.0</ele><time>2026-03-22T22:57:05Z</time></trkpt><trkpt lat="25.065879955757293" lon="121.35966953700228"><ele>257.0</ele><time>2026-03-22T22:57:06Z</time></trkpt><trkpt lat="25.065881885731883" lon="121.35959611867878"><ele>257.2</ele><time>2026-03-22T22:57:07Z</time></trkpt><trkpt lat="25.065885636562797" lon="121.35945435162395"><ele>257.4</ele><time>2026-03-22T22:57:09Z</time></trkpt><trkpt lat="25.065887910320168" lon="121.35936863190744"><ele>257.6</ele><time>2026-03-22T22:57:10Z</time></trkpt><trkpt lat="25.0658907789334" lon="121.35926048637386"><ele>257.8</ele><time>2026-03-22T22:57:11Z</time></trkpt><trkpt lat="25.06589393715292" lon="121.35914142278929"><ele>258.0</ele><time>2026-03-22T22:57:12Z</time></trkpt><trkpt lat="25.065897219887294" lon="121.35901766503893"><ele>258.0</ele><time>2026-03-22T22:57:13Z</time></trkpt><trkpt lat="25.065900720133605" lon="121.3588857072305"><ele>258.0</ele><time>2026-03-22T22:57:14Z</time></trkpt><trkpt lat="25.065904162016455" lon="121.35875594971832"><ele>258.0</ele><time>2026-03-22T22:57:15Z</time></trkpt><trkpt lat="25.06590858151397" lon="121.35861317954237"><ele>258.0</ele><time>2026-03-22T22:57:16Z</time></trkpt><trkpt lat="25.065930173131076" lon="121.35845728610656"><ele>257.6666666666667</ele><time>2026-03-22T22:57:17Z</time></trkpt><trkpt lat="25.065932720443232" lon="121.35828782765063"><ele>257.33333333333337</ele><time>2026-03-22T22:57:18Z</time></trkpt><trkpt lat="25.065932065652166" lon="121.35811111816857"><ele>257.0</ele><time>2026-03-22T22:57:19Z</time></trkpt><trkpt lat="25.065937622740588" lon="121.35794152399468"><ele>255.33333333333334</ele><time>2026-03-22T22:57:20Z</time></trkpt><trkpt lat="25.065940205525955" lon="121.35776535523956"><ele>253.66666666666669</ele><time>2026-03-22T22:57:21Z</time></trkpt><trkpt lat="25.065942692910888" lon="121.35759440764838"><ele>252.0</ele><time>2026-03-22T22:57:22Z</time></trkpt><trkpt lat="25.065948072365117" lon="121.35742367304641"><ele>252.0</ele><time>2026-03-22T22:57:23Z</time></trkpt><trkpt lat="25.06595720015129" lon="121.35724626622101"><ele>252.0</ele><time>2026-03-22T22:57:24Z</time></trkpt><trkpt lat="25.06597194350787" lon="121.35707611111577"><ele>252.0</ele><time>2026-03-22T22:57:25Z</time></trkpt><trkpt lat="25.065981959141574" lon="121.3568962087143"><ele>251.66666666666669</ele><time>2026-03-22T22:57:26Z</time></trkpt><trkpt lat="25.065973083258907" lon="121.35671850898058"><ele>251.33333333333334</ele><time>2026-03-22T22:57:27Z</time></trkpt><trkpt lat="25.065995153566156" lon="121.3565433707647"><ele>251.0</ele><time>2026-03-22T22:57:28Z</time></trkpt><trkpt lat="25.066004744703175" lon="121.35635686802195"><ele>251.0</ele><time>2026-03-22T22:57:29Z</time></trkpt><trkpt lat="25.066003411741892" lon="121.35617739034174"><ele>251.0</ele><time>2026-03-22T22:57:30Z</time></trkpt><trkpt lat="25.066008535251466" lon="121.35599702830592"><ele>251.0</ele><time>2026-03-22T22:57:31Z</time></trkpt><trkpt lat="25.066033331103927" lon="121.35582386496519"><ele>251.0</ele><time>2026-03-22T22:57:32Z</time></trkpt><trkpt lat="25.06604925726575" lon="121.3556425143831"><ele>251.0</ele><time>2026-03-22T22:57:33Z</time></trkpt><trkpt lat="25.066030879882256" lon="121.35547222120141"><ele>251.0</ele><time>2026-03-22T22:57:34Z</time></trkpt><trkpt lat="25.066021601906577" lon="121.3553127676195"><ele>252.0</ele><time>2026-03-22T22:57:35Z</time></trkpt><trkpt lat="25.066032914501694" lon="121.35515163737199"><ele>253.0</ele><time>2026-03-22T22:57:36Z</time></trkpt><trkpt lat="25.06601788249838" lon="121.35500433207446"><ele>254.0</ele><time>2026-03-22T22:57:37Z</time></trkpt><trkpt lat="25.066004157948303" lon="121.35485026970258"><ele>255.0</ele><time>2026-03-22T22:57:38Z</time></trkpt><trkpt lat="25.06599096938996" lon="121.35469764447761"><ele>255.25</ele><time>2026-03-22T22:57:39Z</time></trkpt><trkpt lat="25.06598153833248" lon="121.35456124575455"><ele>255.5</ele><time>2026-03-22T22:57:40Z</time></trkpt><trkpt lat="25.065974446639185" lon="121.35443164701907"><ele>255.75</ele><time>2026-03-22T22:57:41Z</time></trkpt><trkpt lat="25.065967187618682" lon="121.35429876378299"><ele>256.0</ele><time>2026-03-22T22:57:42Z</time></trkpt><trkpt lat="25.065961281136737" lon="121.35417414596944"><ele>256.0</ele><time>2026-03-22T22:57:43Z</time></trkpt><trkpt lat="25.06595661696098" lon="121.35404316489519"><ele>256.0</ele><time>2026-03-22T22:57:44Z</time></trkpt><trkpt lat="25.065952516784254" lon="121.35390897437887"><ele>256.0</ele><time>2026-03-22T22:57:45Z</time></trkpt><trkpt lat="25.065949910591574" lon="121.35377470882169"><ele>256.0</ele><time>2026-03-22T22:57:46Z</time></trkpt><trkpt lat="25.065948427395327" lon="121.35364041751089"><ele>255.20000000000002</ele><time>2026-03-22T22:57:47Z</time></trkpt><trkpt lat="25.06594462031815" lon="121.35352182300296"><ele>254.40000000000003</ele><time>2026-03-22T22:57:48Z</time></trkpt><trkpt lat="25.065939735705324" lon="121.35339775373508"><ele>253.6</ele><time>2026-03-22T22:57:49Z</time></trkpt><trkpt lat="25.065934105487255" lon="121.353278009861"><ele>252.8</ele><time>2026-03-22T22:57:50Z</time></trkpt><trkpt lat="25.06592872764924" lon="121.35315543078104"><ele>252.0</ele><time>2026-03-22T22:57:51Z</time></trkpt><trkpt lat="25.065923415331962" lon="121.35302974756974"><ele>251.75</ele><time>2026-03-22T22:57:52Z</time></trkpt><trkpt lat="25.065916794393925" lon="121.35290690765783"><ele>251.5</ele><time>2026-03-22T22:57:53Z</time></trkpt><trkpt lat="25.06591120055458" lon="121.35278026660781"><ele>251.25</ele><time>2026-03-22T22:57:54Z</time></trkpt><trkpt lat="25.065904017549546" lon="121.35264288184793"><ele>251.0</ele><time>2026-03-22T22:57:55Z</time></trkpt><trkpt lat="25.065899770515216" lon="121.35250444966141"><ele>251.0</ele><time>2026-03-22T22:57:56Z</time></trkpt><trkpt lat="25.06589807574085" lon="121.35237713680314"><ele>251.0</ele><time>2026-03-22T22:57:57Z</time></trkpt><trkpt lat="25.06589755004377" lon="121.35223651574616"><ele>251.0</ele><time>2026-03-22T22:57:58Z</time></trkpt><trkpt lat="25.0659313086417" lon="121.35210403430669"><ele>251.0</ele><time>2026-03-22T22:57:59Z</time></trkpt><trkpt lat="25.06609427787461" lon="121.35185337757883"><ele>251.0</ele><time>2026-03-22T22:58:00Z</time></trkpt><trkpt lat="25.066159405021914" lon="121.35163866076304"><ele>251.0</ele><time>2026-03-22T22:58:01Z</time></trkpt><trkpt lat="25.06619499301304" lon="121.35151372881413"><ele>251.0</ele><time>2026-03-22T22:58:02Z</time></trkpt><trkpt lat="25.066232502347695" lon="121.35138924858546"><ele>251.0</ele><time>2026-03-22T22:58:03Z</time></trkpt><trkpt lat="25.066309754622374" lon="121.35128731344382"><ele>229.0</ele><time>2026-03-22T22:58:04Z</time></trkpt><trkpt lat="25.066815006249204" lon="121.35141185255675"><ele>229.25</ele><time>2026-03-22T22:58:05Z</time></trkpt><trkpt lat="25.066868490787368" lon="121.35129989963707"><ele>229.5</ele><time>2026-03-22T22:58:06Z</time></trkpt><trkpt lat="25.066922398862484" lon="121.35118726751568"><ele>229.75</ele><time>2026-03-22T22:58:07Z</time></trkpt><trkpt lat="25.0669719899779" lon="121.35107563661747"><ele>230.0</ele><time>2026-03-22T22:58:08Z</time></trkpt><trkpt lat="25.067026002302384" lon="121.35096241011013"><ele>230.0</ele><time>2026-03-22T22:58:09Z</time></trkpt><trkpt lat="25.06707912393792" lon="121.35084512328216"><ele>230.0</ele><time>2026-03-22T22:58:10Z</time></trkpt><trkpt lat="25.06713529078417" lon="121.35073184855156"><ele>230.0</ele><time>2026-03-22T22:58:11Z</time></trkpt><trkpt lat="25.067189677939155" lon="121.35061947945701"><ele>230.0</ele><time>2026-03-22T22:58:12Z</time></trkpt><trkpt lat="25.06724754470222" lon="121.35050588331451"><ele>229.5</ele><time>2026-03-22T22:58:13Z</time></trkpt><trkpt lat="25.06730192428844" lon="121.35038509040963"><ele>229.0</ele><time>2026-03-22T22:58:14Z</time></trkpt><trkpt lat="25.067356731613547" lon="121.3502623744106"><ele>228.5</ele><time>2026-03-22T22:58:15Z</time></trkpt><trkpt lat="25.06741267398942" lon="121.35014974033065"><ele>228.0</ele><time>2026-03-22T22:58:16Z</time></trkpt><trkpt lat="25.067466971998364" lon="121.35003658008475"><ele>225.0</ele><time>2026-03-22T22:58:17Z</time></trkpt><trkpt lat="25.06752504377435" lon="121.34991813033105"><ele>222.0</ele><time>2026-03-22T22:58:18Z</time></trkpt><trkpt lat="25.067583156364762" lon="121.34980114269415"><ele>219.0</ele><time>2026-03-22T22:58:19Z</time></trkpt><trkpt lat="25.067635571060535" lon="121.34967825417635"><ele>216.0</ele><time>2026-03-22T22:58:20Z</time></trkpt><trkpt lat="25.067694676499144" lon="121.34955973135392"><ele>215.0</ele><time>2026-03-22T22:58:21Z</time></trkpt><trkpt lat="25.06774965439932" lon="121.34944777480652"><ele>214.0</ele><time>2026-03-22T22:58:22Z</time></trkpt><trkpt lat="25.067802655833226" lon="121.34933583281219"><ele>213.0</ele><time>2026-03-22T22:58:23Z</time></trkpt><trkpt lat="25.06785829895091" lon="121.3492230050223"><ele>212.0</ele><time>2026-03-22T22:58:24Z</time></trkpt><trkpt lat="25.067910626463526" lon="121.34910492771496"><ele>212.0</ele><time>2026-03-22T22:58:25Z</time></trkpt><trkpt lat="25.067961724488335" lon="121.34898679765736"><ele>212.0</ele><time>2026-03-22T22:58:26Z</time></trkpt><trkpt lat="25.068011246280278" lon="121.3488648624831"><ele>212.0</ele><time>2026-03-22T22:58:27Z</time></trkpt><trkpt lat="25.068056354429768" lon="121.34874582563033"><ele>212.0</ele><time>2026-03-22T22:58:28Z</time></trkpt><trkpt lat="25.068099408538206" lon="121.34862329008156"><ele>213.25</ele><time>2026-03-22T22:58:29Z</time></trkpt><trkpt lat="25.068142703788165" lon="121.34850337523875"><ele>214.5</ele><time>2026-03-22T22:58:30Z</time></trkpt><trkpt lat="25.06818982053277" lon="121.34838172984777"><ele>215.75</ele><time>2026-03-22T22:58:31Z</time></trkpt><trkpt lat="25.068231843842725" lon="121.34826007413952"><ele>217.0</ele><time>2026-03-22T22:58:32Z</time></trkpt><trkpt lat="25.068260789382446" lon="121.34813464424121"><ele>214.0</ele><time>2026-03-22T22:58:33Z</time></trkpt><trkpt lat="25.068295013398963" lon="121.34800480181815"><ele>211.0</ele><time>2026-03-22T22:58:34Z</time></trkpt><trkpt lat="25.068318895924417" lon="121.3478745101259"><ele>208.0</ele><time>2026-03-22T22:58:35Z</time></trkpt><trkpt lat="25.068337107782217" lon="121.34774936733024"><ele>205.0</ele><time>2026-03-22T22:58:36Z</time></trkpt><trkpt lat="25.068357334824363" lon="121.3476201377587"><ele>205.0</ele><time>2026-03-22T22:58:37Z</time></trkpt><trkpt lat="25.0683727206551" lon="121.34748883365374"><ele>205.0</ele><time>2026-03-22T22:58:38Z</time></trkpt><trkpt lat="25.06838836249786" lon="121.34735609976669"><ele>205.0</ele><time>2026-03-22T22:58:39Z</time></trkpt><trkpt lat="25.068400932382858" lon="121.34722586812084"><ele>205.0</ele><time>2026-03-22T22:58:40Z</time></trkpt><trkpt lat="25.068409327107567" lon="121.34709603518793"><ele>203.75</ele><time>2026-03-22T22:58:41Z</time></trkpt><trkpt lat="25.068413617571018" lon="121.34696396768769"><ele>202.5</ele><time>2026-03-22T22:58:42Z</time></trkpt><trkpt lat="25.068415667403386" lon="121.34683209156042"><ele>201.25</ele><time>2026-03-22T22:58:43Z</time></trkpt><trkpt lat="25.068413317053828" lon="121.34670463765478"><ele>200.0</ele><time>2026-03-22T22:58:44Z</time></trkpt><trkpt lat="25.068408861193888" lon="121.34657208703032"><ele>200.0</ele><time>2026-03-22T22:58:45Z</time></trkpt><trkpt lat="25.068398771539847" lon="121.34644035144763"><ele>200.0</ele><time>2026-03-22T22:58:46Z</time></trkpt><trkpt lat="25.068385662864795" lon="121.34631025758908"><ele>200.0</ele><time>2026-03-22T22:58:47Z</time></trkpt><trkpt lat="25.068371518726767" lon="121.34618053484891"><ele>200.0</ele><time>2026-03-22T22:58:48Z</time></trkpt><trkpt lat="25.068355247866133" lon="121.34605164773413"><ele>199.0</ele><time>2026-03-22T22:58:49Z</time></trkpt><trkpt lat="25.068338600928264" lon="121.34592338813383"><ele>198.0</ele><time>2026-03-22T22:58:50Z</time></trkpt><trkpt lat="25.068316763754684" lon="121.34579484270101"><ele>197.0</ele><time>2026-03-22T22:58:51Z</time></trkpt><trkpt lat="25.06829583569946" lon="121.34566330967074"><ele>196.0</ele><time>2026-03-22T22:58:52Z</time></trkpt><trkpt lat="25.06827694453354" lon="121.34553186353011"><ele>200.5</ele><time>2026-03-22T22:58:53Z</time></trkpt><trkpt lat="25.068256300349237" lon="121.34540014775398"><ele>205.0</ele><time>2026-03-22T22:58:54Z</time></trkpt><trkpt lat="25.068235484110883" lon="121.3452701287896"><ele>209.5</ele><time>2026-03-22T22:58:55Z</time></trkpt><trkpt lat="25.068215790277524" lon="121.34513926048733"><ele>214.0</ele><time>2026-03-22T22:58:56Z</time></trkpt><trkpt lat="25.068198232995307" lon="121.34500660782886"><ele>214.0</ele><time>2026-03-22T22:58:57Z</time></trkpt><trkpt lat="25.06817853461914" lon="121.34487205332394"><ele>214.0</ele><time>2026-03-22T22:58:58Z</time></trkpt><trkpt lat="25.068159554592" lon="121.3447362242958"><ele>214.0</ele><time>2026-03-22T22:58:59Z</time></trkpt><trkpt lat="25.068144190554044" lon="121.34460859444508"><ele>214.0</ele><time>2026-03-22T22:59:00Z</time></trkpt><trkpt lat="25.068133016229687" lon="121.34448039930899"><ele>211.25</ele><time>2026-03-22T22:59:01Z</time></trkpt><trkpt lat="25.068114384949087" lon="121.3443497680705"><ele>208.5</ele><time>2026-03-22T22:59:02Z</time></trkpt><trkpt lat="25.068100630397172" lon="121.34421818964375"><ele>205.75</ele><time>2026-03-22T22:59:03Z</time></trkpt><trkpt lat="25.068079905764037" lon="121.34408767231251"><ele>203.0</ele><time>2026-03-22T22:59:04Z</time></trkpt><trkpt lat="25.06805641495675" lon="121.34395517473011"><ele>200.5</ele><time>2026-03-22T22:59:05Z</time></trkpt><trkpt lat="25.068043996054758" lon="121.34382792154653"><ele>198.0</ele><time>2026-03-22T22:59:06Z</time></trkpt><trkpt lat="25.068026280178895" lon="121.34369412078152"><ele>195.5</ele><time>2026-03-22T22:59:07Z</time></trkpt><trkpt lat="25.06800668793142" lon="121.34356311205087"><ele>193.0</ele><time>2026-03-22T22:59:08Z</time></trkpt><trkpt lat="25.067958120597677" lon="121.34316860114949"><ele>191.0</ele><time>2026-03-22T22:59:11Z</time></trkpt><trkpt lat="25.06793664965486" lon="121.34303975447692"><ele>189.0</ele><time>2026-03-22T22:59:12Z</time></trkpt><trkpt lat="25.06791946926225" lon="121.34291350145922"><ele>187.0</ele><time>2026-03-22T22:59:13Z</time></trkpt><trkpt lat="25.067898372764347" lon="121.34278092825728"><ele>185.0</ele><time>2026-03-22T22:59:14Z</time></trkpt><trkpt lat="25.067876563790815" lon="121.34264947014502"><ele>185.0</ele><time>2026-03-22T22:59:15Z</time></trkpt><trkpt lat="25.067857787763554" lon="121.34251842970194"><ele>185.0</ele><time>2026-03-22T22:59:16Z</time></trkpt><trkpt lat="25.067835114649064" lon="121.34238960640516"><ele>185.0</ele><time>2026-03-22T22:59:17Z</time></trkpt><trkpt lat="25.067818953041535" lon="121.34226160680952"><ele>185.0</ele><time>2026-03-22T22:59:18Z</time></trkpt><trkpt lat="25.067802322359572" lon="121.34213101589866"><ele>184.25</ele><time>2026-03-22T22:59:19Z</time></trkpt><trkpt lat="25.06778178017923" lon="121.34199909880337"><ele>183.5</ele><time>2026-03-22T22:59:20Z</time></trkpt><trkpt lat="25.067761946422124" lon="121.34186972364837"><ele>182.75</ele><time>2026-03-22T22:59:21Z</time></trkpt><trkpt lat="25.0677358875423" lon="121.34174513208987"><ele>182.0</ele><time>2026-03-22T22:59:22Z</time></trkpt><trkpt lat="25.067708555686416" lon="121.3416195384761"><ele>182.0</ele><time>2026-03-22T22:59:23Z</time></trkpt><trkpt lat="25.067682300906775" lon="121.34149462891804"><ele>182.0</ele><time>2026-03-22T22:59:24Z</time></trkpt><trkpt lat="25.06765213286064" lon="121.34136673624909"><ele>182.0</ele><time>2026-03-22T22:59:25Z</time></trkpt><trkpt lat="25.067624110510074" lon="121.34124273678535"><ele>182.0</ele><time>2026-03-22T22:59:26Z</time></trkpt><trkpt lat="25.067591295075903" lon="121.34111748738557"><ele>180.0</ele><time>2026-03-22T22:59:27Z</time></trkpt><trkpt lat="25.067559061395162" lon="121.3409929060449"><ele>178.0</ele><time>2026-03-22T22:59:28Z</time></trkpt><trkpt lat="25.067523585254293" lon="121.3408701108259"><ele>176.0</ele><time>2026-03-22T22:59:29Z</time></trkpt><trkpt lat="25.067487632868268" lon="121.34074907101575"><ele>174.0</ele><time>2026-03-22T22:59:30Z</time></trkpt><trkpt lat="25.06745059278231" lon="121.34062721965883"><ele>174.0</ele><time>2026-03-22T22:59:31Z</time></trkpt><trkpt lat="25.06741209266503" lon="121.3405046326815"><ele>174.0</ele><time>2026-03-22T22:59:32Z</time></trkpt><trkpt lat="25.067371079087852" lon="121.34038369025372"><ele>174.0</ele><time>2026-03-22T22:59:33Z</time></trkpt><trkpt lat="25.067329608093203" lon="121.34026314630596"><ele>174.0</ele><time>2026-03-22T22:59:34Z</time></trkpt><trkpt lat="25.067286359685966" lon="121.34014189153747"><ele>174.0</ele><time>2026-03-22T22:59:35Z</time></trkpt><trkpt lat="25.06724107743105" lon="121.3400217727189"><ele>174.0</ele><time>2026-03-22T22:59:36Z</time></trkpt><trkpt lat="25.067196817256423" lon="121.33990223713475"><ele>174.0</ele><time>2026-03-22T22:59:37Z</time></trkpt><trkpt lat="25.06714984697915" lon="121.3397825476819"><ele>174.0</ele><time>2026-03-22T22:59:38Z</time></trkpt><trkpt lat="25.06710273852872" lon="121.33966302698316"><ele>172.5</ele><time>2026-03-22T22:59:39Z</time></trkpt><trkpt lat="25.067056268844137" lon="121.33954423534803"><ele>171.0</ele><time>2026-03-22T22:59:40Z</time></trkpt><trkpt lat="25.067008582940055" lon="121.3394252313648"><ele>169.5</ele><time>2026-03-22T22:59:41Z</time></trkpt><trkpt lat="25.06696110255362" lon="121.33930555396249"><ele>168.0</ele><time>2026-03-22T22:59:42Z</time></trkpt><trkpt lat="25.066914222492308" lon="121.33918532609185"><ele>168.0</ele><time>2026-03-22T22:59:43Z</time></trkpt><trkpt lat="25.066866827010706" lon="121.33906595752447"><ele>168.0</ele><time>2026-03-22T22:59:44Z</time></trkpt><trkpt lat="25.06682073280961" lon="121.33894689888838"><ele>168.0</ele><time>2026-03-22T22:59:45Z</time></trkpt><trkpt lat="25.06677501293854" lon="121.33882697255795"><ele>168.0</ele><time>2026-03-22T22:59:46Z</time></trkpt><trkpt lat="25.06672961183382" lon="121.33870846502815"><ele>168.75</ele><time>2026-03-22T22:59:47Z</time></trkpt><trkpt lat="25.066683111274052" lon="121.33858820306457"><ele>169.5</ele><time>2026-03-22T22:59:48Z</time></trkpt><trkpt lat="25.06663891543419" lon="121.33846790791526"><ele>170.25</ele><time>2026-03-22T22:59:49Z</time></trkpt><trkpt lat="25.0665918027348" lon="121.33834912056474"><ele>171.0</ele><time>2026-03-22T22:59:50Z</time></trkpt><trkpt lat="25.066544793067244" lon="121.33822998602157"><ele>171.0</ele><time>2026-03-22T22:59:51Z</time></trkpt><trkpt lat="25.066498647287016" lon="121.33811047907302"><ele>171.0</ele><time>2026-03-22T22:59:52Z</time></trkpt><trkpt lat="25.066450243331794" lon="121.33799093838375"><ele>171.0</ele><time>2026-03-22T22:59:53Z</time></trkpt><trkpt lat="25.066404166462736" lon="121.33787100116056"><ele>171.0</ele><time>2026-03-22T22:59:54Z</time></trkpt><trkpt lat="25.066360587933207" lon="121.33774726191368"><ele>169.0</ele><time>2026-03-22T22:59:55Z</time></trkpt><trkpt lat="25.066315602876383" lon="121.33763071451011"><ele>167.0</ele><time>2026-03-22T22:59:56Z</time></trkpt><trkpt lat="25.066267998289646" lon="121.33751056355788"><ele>165.0</ele><time>2026-03-22T22:59:57Z</time></trkpt><trkpt lat="25.066277600223554" lon="121.33739055528625"><ele>163.0</ele><time>2026-03-22T22:59:58Z</time></trkpt><trkpt lat="25.06628582283398" lon="121.33725185445604"><ele>162.0</ele><time>2026-03-22T22:59:59Z</time></trkpt><trkpt lat="25.066267502574615" lon="121.33711872144634"><ele>161.0</ele><time>2026-03-22T23:00:00Z</time></trkpt><trkpt lat="25.066245006678983" lon="121.33699292765064"><ele>160.0</ele><time>2026-03-22T23:00:01Z</time></trkpt><trkpt lat="25.06622020155762" lon="121.33686985398163"><ele>159.0</ele><time>2026-03-22T23:00:02Z</time></trkpt><trkpt lat="25.066195197743095" lon="121.33674524806825"><ele>159.0</ele><time>2026-03-22T23:00:03Z</time></trkpt><trkpt lat="25.066159493878455" lon="121.3365971501346"><ele>159.0</ele><time>2026-03-22T23:00:04Z</time></trkpt><trkpt lat="25.06612620420596" lon="121.33648496456064"><ele>159.0</ele><time>2026-03-22T23:00:05Z</time></trkpt><trkpt lat="25.066100297743034" lon="121.33638145119977"><ele>159.0</ele><time>2026-03-22T23:00:06Z</time></trkpt><trkpt lat="25.066079446683826" lon="121.33627037003012"><ele>159.0</ele><time>2026-03-22T23:00:07Z</time></trkpt><trkpt lat="25.06607215441037" lon="121.336172509496"><ele>158.4</ele><time>2026-03-22T23:00:08Z</time></trkpt><trkpt lat="25.06607435630421" lon="121.33608019416236"><ele>157.8</ele><time>2026-03-22T23:00:09Z</time></trkpt><trkpt lat="25.066070633138608" lon="121.33596390931262"><ele>157.2</ele><time>2026-03-22T23:00:10Z</time></trkpt><trkpt lat="25.06607479409711" lon="121.33586683762813"><ele>156.6</ele><time>2026-03-22T23:00:11Z</time></trkpt><trkpt lat="25.066076623619026" lon="121.33575706769611"><ele>156.0</ele><time>2026-03-22T23:00:12Z</time></trkpt><trkpt lat="25.066081789422803" lon="121.33564549439902"><ele>155.5</ele><time>2026-03-22T23:00:13Z</time></trkpt><trkpt lat="25.066085700265553" lon="121.33550310302627"><ele>155.0</ele><time>2026-03-22T23:00:14Z</time></trkpt><trkpt lat="25.06595243813935" lon="121.3350439443421"><ele>155.0</ele><time>2026-03-22T23:00:15Z</time></trkpt><trkpt lat="25.06590732291056" lon="121.33496827418539"><ele>155.0</ele><time>2026-03-22T23:00:16Z</time></trkpt><trkpt lat="25.06585229963411" lon="121.33485503422644"><ele>155.0</ele><time>2026-03-22T23:00:17Z</time></trkpt><trkpt lat="25.06579001699204" lon="121.3346919161137"><ele>155.0</ele><time>2026-03-22T23:00:19Z</time></trkpt><trkpt lat="25.065756834352637" lon="121.33458229009635"><ele>154.8</ele><time>2026-03-22T23:00:20Z</time></trkpt><trkpt lat="25.065718267301122" lon="121.33444971067078"><ele>154.6</ele><time>2026-03-22T23:00:21Z</time></trkpt><trkpt lat="25.065685989536473" lon="121.3343490861276"><ele>154.4</ele><time>2026-03-22T23:00:22Z</time></trkpt><trkpt lat="25.065667607629365" lon="121.33421027713858"><ele>154.2</ele><time>2026-03-22T23:00:24Z</time></trkpt><trkpt lat="25.065666022925413" lon="121.33410891219785"><ele>154.0</ele><time>2026-03-22T23:00:25Z</time></trkpt><trkpt lat="25.06566872753473" lon="121.3339974107544"><ele>152.75</ele><time>2026-03-22T23:00:26Z</time></trkpt><trkpt lat="25.065675087770025" lon="121.33386810786287"><ele>151.5</ele><time>2026-03-22T23:00:27Z</time></trkpt><trkpt lat="25.065682417063314" lon="121.33376716658748"><ele>150.25</ele><time>2026-03-22T23:00:28Z</time></trkpt><trkpt lat="25.065701290444583" lon="121.33362878892397"><ele>149.0</ele><time>2026-03-22T23:00:29Z</time></trkpt><trkpt lat="25.065712070533536" lon="121.33347889709857"><ele>146.0</ele><time>2026-03-22T23:00:30Z</time></trkpt><trkpt lat="25.065493264845212" lon="121.33297137675338"><ele>146.0</ele><time>2026-03-22T23:00:31Z</time></trkpt><trkpt lat="25.06547172110864" lon="121.33280832251438"><ele>146.0</ele><time>2026-03-22T23:00:35Z</time></trkpt><trkpt lat="25.065479780396736" lon="121.33266670072899"><ele>146.0</ele><time>2026-03-22T23:00:36Z</time></trkpt><trkpt lat="25.065453641452812" lon="121.33246363788442"><ele>146.0</ele><time>2026-03-22T23:00:37Z</time></trkpt><trkpt lat="25.065138473074384" lon="121.33234697531715"><ele>146.0</ele><time>2026-03-22T23:00:38Z</time></trkpt><trkpt lat="25.065098920086513" lon="121.33226475517215"><ele>146.0</ele><time>2026-03-22T23:00:39Z</time></trkpt><trkpt lat="25.06493851990892" lon="121.33213835307248"><ele>145.33333333333331</ele><time>2026-03-22T23:00:40Z</time></trkpt><trkpt lat="25.064921147145412" lon="121.33192631390396"><ele>144.66666666666666</ele><time>2026-03-22T23:00:41Z</time></trkpt><trkpt lat="25.064944112152734" lon="121.33179338721233"><ele>144.0</ele><time>2026-03-22T23:00:42Z</time></trkpt><trkpt lat="25.064994889507666" lon="121.3316192051492"><ele>144.0</ele><time>2026-03-22T23:00:43Z</time></trkpt><trkpt lat="25.065157198660422" lon="121.33147151857631"><ele>144.0</ele><time>2026-03-22T23:00:44Z</time></trkpt><trkpt lat="25.065232077635805" lon="121.33139726336248"><ele>144.0</ele><time>2026-03-22T23:00:45Z</time></trkpt><trkpt lat="25.06534551757436" lon="121.33134390006579"><ele>144.0</ele><time>2026-03-22T23:00:46Z</time></trkpt><trkpt lat="25.065386223644477" lon="121.33122212012714"><ele>143.5</ele><time>2026-03-22T23:00:47Z</time></trkpt><trkpt lat="25.065420383539834" lon="121.33109311553021"><ele>143.0</ele><time>2026-03-22T23:00:48Z</time></trkpt><trkpt lat="25.065429717090502" lon="121.3309731533012"><ele>142.5</ele><time>2026-03-22T23:00:49Z</time></trkpt><trkpt lat="25.065467645855804" lon="121.33085762680828"><ele>142.0</ele><time>2026-03-22T23:00:50Z</time></trkpt><trkpt lat="25.065486360895537" lon="121.33072877211048"><ele>142.0</ele><time>2026-03-22T23:00:51Z</time></trkpt><trkpt lat="25.065539030822805" lon="121.33061247654356"><ele>142.0</ele><time>2026-03-22T23:00:52Z</time></trkpt><trkpt lat="25.065575715160662" lon="121.33049117178554"><ele>142.0</ele><time>2026-03-22T23:00:53Z</time></trkpt><trkpt lat="25.065614109194367" lon="121.33036877728979"><ele>142.0</ele><time>2026-03-22T23:00:54Z</time></trkpt><trkpt lat="25.06564693836955" lon="121.33024656076854"><ele>142.25</ele><time>2026-03-22T23:00:55Z</time></trkpt><trkpt lat="25.065683475555602" lon="121.33011621824987"><ele>142.5</ele><time>2026-03-22T23:00:56Z</time></trkpt><trkpt lat="25.06584962206537" lon="121.33004412066008"><ele>142.75</ele><time>2026-03-22T23:00:57Z</time></trkpt><trkpt lat="25.065890091648257" lon="121.32993643536912"><ele>143.0</ele><time>2026-03-22T23:00:58Z</time></trkpt><trkpt lat="25.065940567735602" lon="121.32984709100096"><ele>144.0</ele><time>2026-03-22T23:00:59Z</time></trkpt><trkpt lat="25.065997476642657" lon="121.3297357961046"><ele>145.0</ele><time>2026-03-22T23:01:00Z</time></trkpt><trkpt lat="25.065853845846075" lon="121.32949922790588"><ele>146.0</ele><time>2026-03-22T23:01:01Z</time></trkpt><trkpt lat="25.06591873004799" lon="121.32941673043692"><ele>144.25</ele><time>2026-03-22T23:01:02Z</time></trkpt><trkpt lat="25.066027589232313" lon="121.32934640638564"><ele>142.5</ele><time>2026-03-22T23:01:03Z</time></trkpt><trkpt lat="25.066108717726447" lon="121.32924706564025"><ele>140.75</ele><time>2026-03-22T23:01:04Z</time></trkpt><trkpt lat="25.066192222096106" lon="121.32911548216633"><ele>139.0</ele><time>2026-03-22T23:01:05Z</time></trkpt><trkpt lat="25.066246368002385" lon="121.32899301548805"><ele>138.0</ele><time>2026-03-22T23:01:06Z</time></trkpt><trkpt lat="25.066294482720664" lon="121.32888783660542"><ele>137.0</ele><time>2026-03-22T23:01:07Z</time></trkpt><trkpt lat="25.06634814730797" lon="121.32877883859828"><ele>136.0</ele><time>2026-03-22T23:01:08Z</time></trkpt><trkpt lat="25.066403685868874" lon="121.32866817101535"><ele>135.0</ele><time>2026-03-22T23:01:09Z</time></trkpt><trkpt lat="25.0664615748397" lon="121.32855553518232"><ele>135.0</ele><time>2026-03-22T23:01:10Z</time></trkpt><trkpt lat="25.066519171194685" lon="121.32844269922481"><ele>135.0</ele><time>2026-03-22T23:01:11Z</time></trkpt><trkpt lat="25.066578549720127" lon="121.32832807136714"><ele>135.0</ele><time>2026-03-22T23:01:12Z</time></trkpt><trkpt lat="25.066638086149684" lon="121.32821280657487"><ele>135.0</ele><time>2026-03-22T23:01:13Z</time></trkpt><trkpt lat="25.066695665731945" lon="121.32810091774205"><ele>134.0</ele><time>2026-03-22T23:01:14Z</time></trkpt><trkpt lat="25.066753537257004" lon="121.32798619745934"><ele>133.0</ele><time>2026-03-22T23:01:15Z</time></trkpt><trkpt lat="25.066815785984026" lon="121.32787459392934"><ele>132.0</ele><time>2026-03-22T23:01:16Z</time></trkpt><trkpt lat="25.06687588853415" lon="121.32779467615573"><ele>131.0</ele><time>2026-03-22T23:01:17Z</time></trkpt><trkpt lat="25.066954455695797" lon="121.3277192307253"><ele>130.0</ele><time>2026-03-22T23:01:18Z</time></trkpt><trkpt lat="25.067035076226738" lon="121.3276473654486"><ele>130.0</ele><time>2026-03-22T23:01:19Z</time></trkpt><trkpt lat="25.06712179815838" lon="121.32758936021955"><ele>130.0</ele><time>2026-03-22T23:01:20Z</time></trkpt><trkpt lat="25.06721130283847" lon="121.32754100123262"><ele>130.0</ele><time>2026-03-22T23:01:21Z</time></trkpt><trkpt lat="25.067306286748" lon="121.32749609530524"><ele>130.0</ele><time>2026-03-22T23:01:22Z</time></trkpt><trkpt lat="25.067401347341875" lon="121.32745937389498"><ele>130.0</ele><time>2026-03-22T23:01:23Z</time></trkpt><trkpt lat="25.067542589679046" lon="121.32740800357207"><ele>131.0</ele><time>2026-03-22T23:01:24Z</time></trkpt><trkpt lat="25.067677278376525" lon="121.32734754628277"><ele>132.0</ele><time>2026-03-22T23:01:25Z</time></trkpt><trkpt lat="25.067645884040783" lon="121.32681440585836"><ele>132.0</ele><time>2026-03-22T23:01:26Z</time></trkpt><trkpt lat="25.067783134694817" lon="121.32668894435726"><ele>132.0</ele><time>2026-03-22T23:01:27Z</time></trkpt><trkpt lat="25.06792750250859" lon="121.32656258508833"><ele>132.0</ele><time>2026-03-22T23:01:28Z</time></trkpt><trkpt lat="25.068075234192374" lon="121.32644097743163"><ele>130.5</ele><time>2026-03-22T23:01:29Z</time></trkpt><trkpt lat="25.06847088868735" lon="121.32645146670855"><ele>129.0</ele><time>2026-03-22T23:01:31Z</time></trkpt><trkpt lat="25.06855378580014" lon="121.32647088676406"><ele>129.0</ele><time>2026-03-22T23:01:32Z</time></trkpt><trkpt lat="25.068945627611345" lon="121.3256638817447"><ele>130.0</ele><time>2026-03-22T23:01:35Z</time></trkpt><trkpt lat="25.069091860559826" lon="121.32553286820573"><ele>131.0</ele><time>2026-03-22T23:01:36Z</time></trkpt><trkpt lat="25.069236722234105" lon="121.32540003845783"><ele>132.0</ele><time>2026-03-22T23:01:37Z</time></trkpt><trkpt lat="25.06938091384576" lon="121.32527220903955"><ele>132.0</ele><time>2026-03-22T23:01:38Z</time></trkpt><trkpt lat="25.069525788587306" lon="121.32514795855333"><ele>132.0</ele><time>2026-03-22T23:01:39Z</time></trkpt><trkpt lat="25.06966992126315" lon="121.32502193652287"><ele>132.0</ele><time>2026-03-22T23:01:40Z</time></trkpt><trkpt lat="25.069805927689735" lon="121.32489405196596"><ele>133.33333333333334</ele><time>2026-03-22T23:01:41Z</time></trkpt><trkpt lat="25.069946124854074" lon="121.3247680117188"><ele>134.66666666666669</ele><time>2026-03-22T23:01:42Z</time></trkpt><trkpt lat="25.07008789796209" lon="121.3246433839175"><ele>136.0</ele><time>2026-03-22T23:01:43Z</time></trkpt><trkpt lat="25.070231316858603" lon="121.32451918413825"><ele>136.0</ele><time>2026-03-22T23:01:44Z</time></trkpt><trkpt lat="25.070373211853262" lon="121.32439622386514"><ele>136.0</ele><time>2026-03-22T23:01:45Z</time></trkpt><trkpt lat="25.070520550749904" lon="121.32427299046206"><ele>136.0</ele><time>2026-03-22T23:01:46Z</time></trkpt><trkpt lat="25.070667426594454" lon="121.3241504667614"><ele>136.33333333333334</ele><time>2026-03-22T23:01:47Z</time></trkpt><trkpt lat="25.070816296197002" lon="121.32402607603147"><ele>136.66666666666666</ele><time>2026-03-22T23:01:48Z</time></trkpt><trkpt lat="25.070966877582745" lon="121.32390119350443"><ele>137.0</ele><time>2026-03-22T23:01:49Z</time></trkpt><trkpt lat="25.071118963692207" lon="121.3237762636578"><ele>137.0</ele><time>2026-03-22T23:01:50Z</time></trkpt><trkpt lat="25.07127296663658" lon="121.32365077883914"><ele>137.0</ele><time>2026-03-22T23:01:51Z</time></trkpt><trkpt lat="25.071426636823563" lon="121.32352420456758"><ele>137.0</ele><time>2026-03-22T23:01:52Z</time></trkpt><trkpt lat="25.071581698707476" lon="121.3233930201927"><ele>136.33333333333331</ele><time>2026-03-22T23:01:53Z</time></trkpt><trkpt lat="25.07173806955452" lon="121.32326197810931"><ele>135.66666666666666</ele><time>2026-03-22T23:01:54Z</time></trkpt><trkpt lat="25.07189387899433" lon="121.32312977970587"><ele>135.0</ele><time>2026-03-22T23:01:55Z</time></trkpt><trkpt lat="25.07204655102659" lon="121.32299286620075"><ele>135.0</ele><time>2026-03-22T23:01:56Z</time></trkpt><trkpt lat="25.07228398328028" lon="121.32295176547956"><ele>135.0</ele><time>2026-03-22T23:01:57Z</time></trkpt><trkpt lat="25.0724356128938" lon="121.32280325737088"><ele>135.0</ele><time>2026-03-22T23:01:58Z</time></trkpt><trkpt lat="25.0725849518539" lon="121.32264976230584"><ele>133.66666666666666</ele><time>2026-03-22T23:01:59Z</time></trkpt><trkpt lat="25.072736439918202" lon="121.3224852282239"><ele>132.33333333333331</ele><time>2026-03-22T23:02:00Z</time></trkpt><trkpt lat="25.07287949550483" lon="121.3223028898312"><ele>131.0</ele><time>2026-03-22T23:02:01Z</time></trkpt><trkpt lat="25.073006689801804" lon="121.32212242855756"><ele>131.0</ele><time>2026-03-22T23:02:02Z</time></trkpt><trkpt lat="25.073132424538684" lon="121.32193734594352"><ele>131.0</ele><time>2026-03-22T23:02:03Z</time></trkpt><trkpt lat="25.07325598699786" lon="121.32174202362634"><ele>131.0</ele><time>2026-03-22T23:02:04Z</time></trkpt><trkpt lat="25.07337298573851" lon="121.32153928869083"><ele>125.0</ele><time>2026-03-22T23:02:05Z</time></trkpt><trkpt lat="25.07347649411612" lon="121.32133962590973"><ele>119.0</ele><time>2026-03-22T23:02:06Z</time></trkpt><trkpt lat="25.07357529434553" lon="121.32113202306863"><ele>113.0</ele><time>2026-03-22T23:02:07Z</time></trkpt><trkpt lat="25.073669478926078" lon="121.32091394906497"><ele>113.0</ele><time>2026-03-22T23:02:08Z</time></trkpt><trkpt lat="25.07375493092128" lon="121.32069490070874"><ele>113.0</ele><time>2026-03-22T23:02:09Z</time></trkpt><trkpt lat="25.0738324175186" lon="121.32047087455179"><ele>113.0</ele><time>2026-03-22T23:02:10Z</time></trkpt><trkpt lat="25.073898881063922" lon="121.32025051754097"><ele>116.0</ele><time>2026-03-22T23:02:11Z</time></trkpt><trkpt lat="25.073958172424717" lon="121.32002641290698"><ele>119.0</ele><time>2026-03-22T23:02:12Z</time></trkpt><trkpt lat="25.074013945897224" lon="121.3197980374826"><ele>122.0</ele><time>2026-03-22T23:02:13Z</time></trkpt><trkpt lat="25.074064408701183" lon="121.31956625731289"><ele>117.33333333333333</ele><time>2026-03-22T23:02:14Z</time></trkpt><trkpt lat="25.07410804529901" lon="121.31933763150107"><ele>112.66666666666666</ele><time>2026-03-22T23:02:15Z</time></trkpt><trkpt lat="25.074145877564305" lon="121.31911336757447"><ele>108.0</ele><time>2026-03-22T23:02:16Z</time></trkpt><trkpt lat="25.074183219734056" lon="121.31889250408636"><ele>106.33333333333334</ele><time>2026-03-22T23:02:17Z</time></trkpt><trkpt lat="25.07422117914898" lon="121.31867155853013"><ele>104.66666666666667</ele><time>2026-03-22T23:02:18Z</time></trkpt><trkpt lat="25.07425867922822" lon="121.31845382081498"><ele>103.0</ele><time>2026-03-22T23:02:19Z</time></trkpt><trkpt lat="25.07429582504815" lon="121.31823784256493"><ele>103.0</ele><time>2026-03-22T23:02:20Z</time></trkpt><trkpt lat="25.074333771773727" lon="121.31803156945999"><ele>103.0</ele><time>2026-03-22T23:02:21Z</time></trkpt><trkpt lat="25.074372565490194" lon="121.31782516076454"><ele>103.0</ele><time>2026-03-22T23:02:22Z</time></trkpt><trkpt lat="25.074409955466916" lon="121.31762696049913"><ele>103.0</ele><time>2026-03-22T23:02:23Z</time></trkpt><trkpt lat="25.07444812791433" lon="121.31743146193764"><ele>103.0</ele><time>2026-03-22T23:02:24Z</time></trkpt><trkpt lat="25.07448628921978" lon="121.31723951468021"><ele>103.0</ele><time>2026-03-22T23:02:25Z</time></trkpt><trkpt lat="25.0745296722152" lon="121.31704686709631"><ele>103.33333333333334</ele><time>2026-03-22T23:02:26Z</time></trkpt><trkpt lat="25.07457787061565" lon="121.31685640606989"><ele>103.66666666666666</ele><time>2026-03-22T23:02:27Z</time></trkpt><trkpt lat="25.074634269083987" lon="121.3166730157576"><ele>104.0</ele><time>2026-03-22T23:02:28Z</time></trkpt><trkpt lat="25.07470147571262" lon="121.31648859379443"><ele>104.66666666666666</ele><time>2026-03-22T23:02:29Z</time></trkpt><trkpt lat="25.074774750196898" lon="121.31630652195422"><ele>105.33333333333334</ele><time>2026-03-22T23:02:30Z</time></trkpt><trkpt lat="25.074853819219083" lon="121.31613551576613"><ele>106.0</ele><time>2026-03-22T23:02:31Z</time></trkpt><trkpt lat="25.074942303425885" lon="121.31596286207225"><ele>106.0</ele><time>2026-03-22T23:02:32Z</time></trkpt><trkpt lat="25.07503415196972" lon="121.31579426127956"><ele>106.0</ele><time>2026-03-22T23:02:33Z</time></trkpt><trkpt lat="25.075131302520358" lon="121.31562882686373"><ele>106.0</ele><time>2026-03-22T23:02:34Z</time></trkpt><trkpt lat="25.075229799264207" lon="121.31546660973517"><ele>107.0</ele><time>2026-03-22T23:02:35Z</time></trkpt><trkpt lat="25.075333259773856" lon="121.31530440432229"><ele>108.0</ele><time>2026-03-22T23:02:36Z</time></trkpt><trkpt lat="25.075438951570852" lon="121.3151495597849"><ele>109.0</ele><time>2026-03-22T23:02:37Z</time></trkpt><trkpt lat="25.07555391086917" lon="121.31499784057208"><ele>109.0</ele><time>2026-03-22T23:02:38Z</time></trkpt><trkpt lat="25.075673341406695" lon="121.3148582534352"><ele>109.0</ele><time>2026-03-22T23:02:39Z</time></trkpt><trkpt lat="25.07580492738565" lon="121.31471751121535"><ele>109.0</ele><time>2026-03-22T23:02:40Z</time></trkpt><trkpt lat="25.075936699157943" lon="121.31458180738144"><ele>106.66666666666667</ele><time>2026-03-22T23:02:41Z</time></trkpt><trkpt lat="25.076063964950485" lon="121.31445363256721"><ele>104.33333333333334</ele><time>2026-03-22T23:02:42Z</time></trkpt><trkpt lat="25.076202962134364" lon="121.31431755110206"><ele>102.0</ele><time>2026-03-22T23:02:43Z</time></trkpt><trkpt lat="25.07634019191694" lon="121.31418253280991"><ele>102.0</ele><time>2026-03-22T23:02:44Z</time></trkpt><trkpt lat="25.07647582042958" lon="121.31404578001582"><ele>102.0</ele><time>2026-03-22T23:02:45Z</time></trkpt><trkpt lat="25.076608445962638" lon="121.31390330571978"><ele>102.0</ele><time>2026-03-22T23:02:46Z</time></trkpt><trkpt lat="25.076733394070793" lon="121.31374712833154"><ele>97.66666666666667</ele><time>2026-03-22T23:02:47Z</time></trkpt><trkpt lat="25.0768545913622" lon="121.31359591117858"><ele>93.33333333333334</ele><time>2026-03-22T23:02:48Z</time></trkpt><trkpt lat="25.07697474993194" lon="121.31344599022252"><ele>89.0</ele><time>2026-03-22T23:02:49Z</time></trkpt><trkpt lat="25.077094792367156" lon="121.31329164864725"><ele>89.0</ele><time>2026-03-22T23:02:50Z</time></trkpt><trkpt lat="25.077213716785128" lon="121.31313289065605"><ele>89.0</ele><time>2026-03-22T23:02:51Z</time></trkpt><trkpt lat="25.077322393166103" lon="121.3129593364595"><ele>89.0</ele><time>2026-03-22T23:02:52Z</time></trkpt><trkpt lat="25.077419182522608" lon="121.31278334464709"><ele>87.0</ele><time>2026-03-22T23:02:53Z</time></trkpt><trkpt lat="25.07751134349292" lon="121.31261117306839"><ele>85.0</ele><time>2026-03-22T23:02:54Z</time></trkpt><trkpt lat="25.07759850448965" lon="121.31242925587904"><ele>83.0</ele><time>2026-03-22T23:02:55Z</time></trkpt><trkpt lat="25.07767372125372" lon="121.31224014976823"><ele>82.66666666666667</ele><time>2026-03-22T23:02:56Z</time></trkpt><trkpt lat="25.077742681267658" lon="121.3120526006156"><ele>82.33333333333333</ele><time>2026-03-22T23:02:57Z</time></trkpt><trkpt lat="25.07780853579305" lon="121.3118668498062"><ele>82.0</ele><time>2026-03-22T23:02:58Z</time></trkpt><trkpt lat="25.077873309540657" lon="121.31168273808991"><ele>82.0</ele><time>2026-03-22T23:02:59Z</time></trkpt><trkpt lat="25.07793916688418" lon="121.3114866540926"><ele>82.0</ele><time>2026-03-22T23:03:00Z</time></trkpt><trkpt lat="25.077972347945064" lon="121.31129019285754"><ele>82.0</ele><time>2026-03-22T23:03:01Z</time></trkpt><trkpt lat="25.07801050260765" lon="121.31109634703435"><ele>83.0</ele><time>2026-03-22T23:03:02Z</time></trkpt><trkpt lat="25.078061322301874" lon="121.31090238158484"><ele>84.0</ele><time>2026-03-22T23:03:03Z</time></trkpt><trkpt lat="25.078112815732293" lon="121.31070717155136"><ele>85.0</ele><time>2026-03-22T23:03:04Z</time></trkpt><trkpt lat="25.07816580462405" lon="121.31050674509258"><ele>85.33333333333333</ele><time>2026-03-22T23:03:05Z</time></trkpt><trkpt lat="25.078220979787275" lon="121.31030454596934"><ele>85.66666666666667</ele><time>2026-03-22T23:03:06Z</time></trkpt><trkpt lat="25.078276598082255" lon="121.31010602695169"><ele>86.0</ele><time>2026-03-22T23:03:07Z</time></trkpt><trkpt lat="25.0783337355681" lon="121.30990679069247"><ele>84.0</ele><time>2026-03-22T23:03:08Z</time></trkpt><trkpt lat="25.078392848832102" lon="121.30970335075467"><ele>82.0</ele><time>2026-03-22T23:03:09Z</time></trkpt><trkpt lat="25.078453208077807" lon="121.30949685533761"><ele>80.0</ele><time>2026-03-22T23:03:10Z</time></trkpt><trkpt lat="25.07851377481178" lon="121.30928710512661"><ele>80.0</ele><time>2026-03-22T23:03:11Z</time></trkpt><trkpt lat="25.07857174559399" lon="121.30907290683075"><ele>80.0</ele><time>2026-03-22T23:03:12Z</time></trkpt><trkpt lat="25.078627586739128" lon="121.30886100806794"><ele>80.0</ele><time>2026-03-22T23:03:13Z</time></trkpt><trkpt lat="25.078684817004028" lon="121.30864644941789"><ele>80.0</ele><time>2026-03-22T23:03:14Z</time></trkpt><trkpt lat="25.078743144637457" lon="121.30843284807557"><ele>80.0</ele><time>2026-03-22T23:03:15Z</time></trkpt><trkpt lat="25.078803469508518" lon="121.30821937066902"><ele>80.0</ele><time>2026-03-22T23:03:16Z</time></trkpt><trkpt lat="25.078866059838006" lon="121.30799552476964"><ele>80.0</ele><time>2026-03-22T23:03:17Z</time></trkpt><trkpt lat="25.07892814290265" lon="121.30777623815435"><ele>80.0</ele><time>2026-03-22T23:03:18Z</time></trkpt><trkpt lat="25.07899023106978" lon="121.30755177162717"><ele>80.0</ele><time>2026-03-22T23:03:19Z</time></trkpt><trkpt lat="25.079052957944292" lon="121.30732375586553"><ele>78.66666666666667</ele><time>2026-03-22T23:03:20Z</time></trkpt><trkpt lat="25.079115330307356" lon="121.30709477917148"><ele>77.33333333333333</ele><time>2026-03-22T23:03:21Z</time></trkpt><trkpt lat="25.07917773366144" lon="121.30686500570235"><ele>76.0</ele><time>2026-03-22T23:03:22Z</time></trkpt><trkpt lat="25.07924061261563" lon="121.30663134102883"><ele>74.0</ele><time>2026-03-22T23:03:23Z</time></trkpt><trkpt lat="25.079305332547666" lon="121.30639051796466"><ele>72.0</ele><time>2026-03-22T23:03:24Z</time></trkpt><trkpt lat="25.079368542482467" lon="121.30615012582327"><ele>72.0</ele><time>2026-03-22T23:03:25Z</time></trkpt><trkpt lat="25.07943079515311" lon="121.3059142846577"><ele>72.0</ele><time>2026-03-22T23:03:26Z</time></trkpt><trkpt lat="25.079492728940977" lon="121.30567965157643"><ele>72.0</ele><time>2026-03-22T23:03:27Z</time></trkpt><trkpt lat="25.07955780510631" lon="121.30544629813902"><ele>72.0</ele><time>2026-03-22T23:03:28Z</time></trkpt><trkpt lat="25.07962849447558" lon="121.30520947453573"><ele>72.0</ele><time>2026-03-22T23:03:29Z</time></trkpt><trkpt lat="25.079699567723335" lon="121.30497301561441"><ele>71.0</ele><time>2026-03-22T23:03:30Z</time></trkpt><trkpt lat="25.07977096474103" lon="121.30473455146203"><ele>70.0</ele><time>2026-03-22T23:03:31Z</time></trkpt><trkpt lat="25.07984010212253" lon="121.304501402038"><ele>70.0</ele><time>2026-03-22T23:03:32Z</time></trkpt><trkpt lat="25.07990916112037" lon="121.30426618289468"><ele>70.0</ele><time>2026-03-22T23:03:33Z</time></trkpt><trkpt lat="25.079975073503974" lon="121.30403703105684"><ele>70.0</ele><time>2026-03-22T23:03:34Z</time></trkpt><trkpt lat="25.080035940771918" lon="121.30381055736656"><ele>69.33333333333333</ele><time>2026-03-22T23:03:35Z</time></trkpt><trkpt lat="25.080095009320534" lon="121.30358416788755"><ele>68.66666666666667</ele><time>2026-03-22T23:03:36Z</time></trkpt><trkpt lat="25.08015138573542" lon="121.30335686057035"><ele>68.0</ele><time>2026-03-22T23:03:37Z</time></trkpt><trkpt lat="25.080191126899457" lon="121.30312541263608"><ele>67.33333333333334</ele><time>2026-03-22T23:03:38Z</time></trkpt><trkpt lat="25.080257864953445" lon="121.30290181743337"><ele>66.66666666666667</ele><time>2026-03-22T23:03:39Z</time></trkpt><trkpt lat="25.080307403573286" lon="121.3026763986245"><ele>66.0</ele><time>2026-03-22T23:03:40Z</time></trkpt><trkpt lat="25.080354384373475" lon="121.30245362652013"><ele>65.66666666666667</ele><time>2026-03-22T23:03:41Z</time></trkpt><trkpt lat="25.08039736847827" lon="121.30222959469778"><ele>65.33333333333334</ele><time>2026-03-22T23:03:42Z</time></trkpt><trkpt lat="25.080438112484007" lon="121.30199691478107"><ele>65.0</ele><time>2026-03-22T23:03:43Z</time></trkpt><trkpt lat="25.080472976850032" lon="121.30177382863847"><ele>65.0</ele><time>2026-03-22T23:03:44Z</time></trkpt><trkpt lat="25.080504057734792" lon="121.30154709852519"><ele>65.0</ele><time>2026-03-22T23:03:45Z</time></trkpt><trkpt lat="25.08053260668958" lon="121.30131699408282"><ele>65.0</ele><time>2026-03-22T23:03:46Z</time></trkpt><trkpt lat="25.080560505989087" lon="121.30109137804406"><ele>63.66666666666667</ele><time>2026-03-22T23:03:47Z</time></trkpt><trkpt lat="25.08058800771851" lon="121.30086897708621"><ele>62.33333333333333</ele><time>2026-03-22T23:03:48Z</time></trkpt><trkpt lat="25.080614398077863" lon="121.30064251773003"><ele>61.0</ele><time>2026-03-22T23:03:49Z</time></trkpt><trkpt lat="25.08060234488434" lon="121.30041053920975"><ele>60.666666666666664</ele><time>2026-03-22T23:03:50Z</time></trkpt><trkpt lat="25.080625463611273" lon="121.30017871979261"><ele>60.33333333333333</ele><time>2026-03-22T23:03:51Z</time></trkpt><trkpt lat="25.080620181803617" lon="121.29994554801135"><ele>60.0</ele><time>2026-03-22T23:03:52Z</time></trkpt><trkpt lat="25.08062583248375" lon="121.29971377593068"><ele>59.66666666666667</ele><time>2026-03-22T23:03:53Z</time></trkpt><trkpt lat="25.080628273166653" lon="121.29948266307622"><ele>59.333333333333336</ele><time>2026-03-22T23:03:54Z</time></trkpt><trkpt lat="25.08063047861426" lon="121.29924781074432"><ele>59.0</ele><time>2026-03-22T23:03:55Z</time></trkpt><trkpt lat="25.080635442344644" lon="121.29901557417641"><ele>59.0</ele><time>2026-03-22T23:03:56Z</time></trkpt><trkpt lat="25.08063752022633" lon="121.29878455167582"><ele>59.0</ele><time>2026-03-22T23:03:57Z</time></trkpt><trkpt lat="25.08064124815389" lon="121.2985504415874"><ele>59.0</ele><time>2026-03-22T23:03:58Z</time></trkpt><trkpt lat="25.080643316582258" lon="121.29832054939254"><ele>59.0</ele><time>2026-03-22T23:03:59Z</time></trkpt><trkpt lat="25.080646007020338" lon="121.29809225269484"><ele>59.0</ele><time>2026-03-22T23:04:00Z</time></trkpt><trkpt lat="25.080651207706836" lon="121.29786498468124"><ele>59.0</ele><time>2026-03-22T23:04:01Z</time></trkpt><trkpt lat="25.080660630295377" lon="121.29764218692003"><ele>58.66666666666667</ele><time>2026-03-22T23:04:02Z</time></trkpt><trkpt lat="25.080670222190857" lon="121.2974207301227"><ele>58.33333333333333</ele><time>2026-03-22T23:04:03Z</time></trkpt><trkpt lat="25.080675229782933" lon="121.2972004368858"><ele>58.0</ele><time>2026-03-22T23:04:04Z</time></trkpt><trkpt lat="25.08067807912516" lon="121.29697975839545"><ele>57.666666666666664</ele><time>2026-03-22T23:04:05Z</time></trkpt><trkpt lat="25.080686008377153" lon="121.29675894704047"><ele>57.33333333333333</ele><time>2026-03-22T23:04:06Z</time></trkpt><trkpt lat="25.080691644237653" lon="121.29653827841149"><ele>57.0</ele><time>2026-03-22T23:04:07Z</time></trkpt><trkpt lat="25.080697569172152" lon="121.29632434068003"><ele>56.33333333333333</ele><time>2026-03-22T23:04:08Z</time></trkpt><trkpt lat="25.080698051292263" lon="121.29610305412626"><ele>55.666666666666664</ele><time>2026-03-22T23:04:09Z</time></trkpt><trkpt lat="25.080701109269167" lon="121.29588718802864"><ele>55.0</ele><time>2026-03-22T23:04:10Z</time></trkpt><trkpt lat="25.08070156654878" lon="121.29566739540597"><ele>55.0</ele><time>2026-03-22T23:04:11Z</time></trkpt><trkpt lat="25.080703300844903" lon="121.29544722530815"><ele>55.0</ele><time>2026-03-22T23:04:12Z</time></trkpt><trkpt lat="25.0807041731674" lon="121.29523078400857"><ele>55.0</ele><time>2026-03-22T23:04:13Z</time></trkpt><trkpt lat="25.08070495238798" lon="121.29501205719627"><ele>55.0</ele><time>2026-03-22T23:04:14Z</time></trkpt><trkpt lat="25.080707376357047" lon="121.29479268712258"><ele>55.0</ele><time>2026-03-22T23:04:15Z</time></trkpt><trkpt lat="25.080712091032655" lon="121.29457260692051"><ele>55.0</ele><time>2026-03-22T23:04:16Z</time></trkpt><trkpt lat="25.080719065964974" lon="121.29435129307512"><ele>55.0</ele><time>2026-03-22T23:04:17Z</time></trkpt><trkpt lat="25.080724450732962" lon="121.29412974903205"><ele>55.0</ele><time>2026-03-22T23:04:18Z</time></trkpt><trkpt lat="25.0807298960753" lon="121.29390919431383"><ele>55.0</ele><time>2026-03-22T23:04:19Z</time></trkpt><trkpt lat="25.08073844556698" lon="121.29369008004049"><ele>54.33333333333333</ele><time>2026-03-22T23:04:20Z</time></trkpt><trkpt lat="25.080749576572735" lon="121.2934702587932"><ele>53.66666666666667</ele><time>2026-03-22T23:04:21Z</time></trkpt><trkpt lat="25.08076123355569" lon="121.29325650418836"><ele>53.0</ele><time>2026-03-22T23:04:22Z</time></trkpt><trkpt lat="25.0807663036787" lon="121.29304306466946"><ele>52.0</ele><time>2026-03-22T23:04:23Z</time></trkpt><trkpt lat="25.080775567708482" lon="121.29283492544386"><ele>51.0</ele><time>2026-03-22T23:04:24Z</time></trkpt><trkpt lat="25.080790393312125" lon="121.29262985178224"><ele>50.0</ele><time>2026-03-22T23:04:25Z</time></trkpt><trkpt lat="25.080802136034873" lon="121.2924315174173"><ele>50.66666666666667</ele><time>2026-03-22T23:04:26Z</time></trkpt><trkpt lat="25.080813036943077" lon="121.29223822601142"><ele>51.33333333333333</ele><time>2026-03-22T23:04:27Z</time></trkpt><trkpt lat="25.080825518754946" lon="121.29205026336143"><ele>52.0</ele><time>2026-03-22T23:04:28Z</time></trkpt><trkpt lat="25.08083705629127" lon="121.29186543163424"><ele>52.0</ele><time>2026-03-22T23:04:29Z</time></trkpt><trkpt lat="25.08084484660182" lon="121.2916837346714"><ele>52.0</ele><time>2026-03-22T23:04:30Z</time></trkpt><trkpt lat="25.08085169426098" lon="121.29150612389844"><ele>52.0</ele><time>2026-03-22T23:04:31Z</time></trkpt><trkpt lat="25.08085182226911" lon="121.29133267597207"><ele>51.0</ele><time>2026-03-22T23:04:32Z</time></trkpt><trkpt lat="25.080849540658278" lon="121.29116183272109"><ele>50.0</ele><time>2026-03-22T23:04:33Z</time></trkpt><trkpt lat="25.08084154703118" lon="121.29099631032307"><ele>49.0</ele><time>2026-03-22T23:04:34Z</time></trkpt><trkpt lat="25.080833019122878" lon="121.29083352477758"><ele>49.0</ele><time>2026-03-22T23:04:35Z</time></trkpt><trkpt lat="25.08082190602198" lon="121.29067424118143"><ele>49.0</ele><time>2026-03-22T23:04:36Z</time></trkpt><trkpt lat="25.08080660244626" lon="121.29052215196987"><ele>49.0</ele><time>2026-03-22T23:04:37Z</time></trkpt><trkpt lat="25.080791769859495" lon="121.2903774460533"><ele>49.0</ele><time>2026-03-22T23:04:38Z</time></trkpt><trkpt lat="25.080774412587814" lon="121.29022963049451"><ele>48.5</ele><time>2026-03-22T23:04:39Z</time></trkpt><trkpt lat="25.08075992499637" lon="121.29008793014663"><ele>48.0</ele><time>2026-03-22T23:04:40Z</time></trkpt><trkpt lat="25.0807455743997" lon="121.28994999026982"><ele>47.5</ele><time>2026-03-22T23:04:41Z</time></trkpt><trkpt lat="25.08073161119473" lon="121.28981156030945"><ele>47.0</ele><time>2026-03-22T23:04:42Z</time></trkpt><trkpt lat="25.08071558990064" lon="121.28967164341894"><ele>48.0</ele><time>2026-03-22T23:04:43Z</time></trkpt><trkpt lat="25.080698431450376" lon="121.28953147120782"><ele>49.0</ele><time>2026-03-22T23:04:44Z</time></trkpt><trkpt lat="25.08068427175847" lon="121.28938924559692"><ele>50.0</ele><time>2026-03-22T23:04:45Z</time></trkpt><trkpt lat="25.080666048602147" lon="121.28925550856351"><ele>51.0</ele><time>2026-03-22T23:04:46Z</time></trkpt><trkpt lat="25.08065770241164" lon="121.28912316640668"><ele>51.0</ele><time>2026-03-22T23:04:47Z</time></trkpt><trkpt lat="25.080649557564406" lon="121.28899865470643"><ele>51.0</ele><time>2026-03-22T23:04:48Z</time></trkpt><trkpt lat="25.080634009679603" lon="121.28886675403929"><ele>51.0</ele><time>2026-03-22T23:04:49Z</time></trkpt><trkpt lat="25.080628522954765" lon="121.28873506762625"><ele>51.0</ele><time>2026-03-22T23:04:50Z</time></trkpt><trkpt lat="25.080620841364727" lon="121.28860867633529"><ele>49.666666666666664</ele><time>2026-03-22T23:04:51Z</time></trkpt><trkpt lat="25.08064615078728" lon="121.28845982789655"><ele>48.33333333333333</ele><time>2026-03-22T23:04:52Z</time></trkpt><trkpt lat="25.08064535694073" lon="121.28831079997619"><ele>47.0</ele><time>2026-03-22T23:04:53Z</time></trkpt><trkpt lat="25.08080357762188" lon="121.28818091019458"><ele>46.75</ele><time>2026-03-22T23:04:54Z</time></trkpt><trkpt lat="25.08080975529759" lon="121.28804248180226"><ele>46.5</ele><time>2026-03-22T23:04:55Z</time></trkpt><trkpt lat="25.08081567131618" lon="121.28790991659213"><ele>46.25</ele><time>2026-03-22T23:04:56Z</time></trkpt><trkpt lat="25.080821739551418" lon="121.28777107553599"><ele>46.0</ele><time>2026-03-22T23:04:57Z</time></trkpt><trkpt lat="25.080826328884303" lon="121.2876338469577"><ele>46.0</ele><time>2026-03-22T23:04:58Z</time></trkpt><trkpt lat="25.080828457609094" lon="121.28749118309062"><ele>46.0</ele><time>2026-03-22T23:04:59Z</time></trkpt><trkpt lat="25.080830492878366" lon="121.28735425309753"><ele>46.0</ele><time>2026-03-22T23:05:00Z</time></trkpt><trkpt lat="25.080832890001815" lon="121.28721991580386"><ele>46.0</ele><time>2026-03-22T23:05:01Z</time></trkpt><trkpt lat="25.08083659233167" lon="121.28708317236337"><ele>45.599999999999994</ele><time>2026-03-22T23:05:02Z</time></trkpt><trkpt lat="25.080841717515476" lon="121.28695519201017"><ele>45.2</ele><time>2026-03-22T23:05:03Z</time></trkpt><trkpt lat="25.080850967816765" lon="121.28682736281253"><ele>44.8</ele><time>2026-03-22T23:05:04Z</time></trkpt><trkpt lat="25.080868492435876" lon="121.28670891749799"><ele>44.400000000000006</ele><time>2026-03-22T23:05:05Z</time></trkpt><trkpt lat="25.080901666807996" lon="121.28661661856667"><ele>44.0</ele><time>2026-03-22T23:05:06Z</time></trkpt><trkpt lat="25.08094356238408" lon="121.28651089748146"><ele>44.0</ele><time>2026-03-22T23:05:07Z</time></trkpt><trkpt lat="25.08098261010085" lon="121.28636269462184"><ele>44.0</ele><time>2026-03-22T23:05:08Z</time></trkpt><trkpt lat="25.081015731627065" lon="121.28623884311938"><ele>44.0</ele><time>2026-03-22T23:05:09Z</time></trkpt><trkpt lat="25.081048435270727" lon="121.28609974791233"><ele>44.0</ele><time>2026-03-22T23:05:10Z</time></trkpt><trkpt lat="25.081072285635617" lon="121.2859867929656"><ele>44.0</ele><time>2026-03-22T23:05:11Z</time></trkpt><trkpt lat="25.081070925662" lon="121.28568918032235"><ele>44.0</ele><time>2026-03-22T23:05:13Z</time></trkpt><trkpt lat="25.081072951844966" lon="121.28559026274542"><ele>44.0</ele><time>2026-03-22T23:05:14Z</time></trkpt><trkpt lat="25.081074986138074" lon="121.28549094922514"><ele>44.0</ele><time>2026-03-22T23:05:15Z</time></trkpt><trkpt lat="25.081076744500457" lon="121.28540121919794"><ele>43.5</ele><time>2026-03-22T23:05:16Z</time></trkpt><trkpt lat="25.081078076921443" lon="121.28531849914779"><ele>43.0</ele><time>2026-03-22T23:05:17Z</time></trkpt><trkpt lat="25.08107938387462" lon="121.2852373603252"><ele>42.5</ele><time>2026-03-22T23:05:18Z</time></trkpt><trkpt lat="25.081080613149542" lon="121.28516104384622"><ele>42.0</ele><time>2026-03-22T23:05:19Z</time></trkpt><trkpt lat="25.080744790104504" lon="121.28508096871467"><ele>42.0</ele><time>2026-03-22T23:05:20Z</time></trkpt><trkpt lat="25.08075133853126" lon="121.28500890432079"><ele>42.0</ele><time>2026-03-22T23:05:21Z</time></trkpt><trkpt lat="25.080767884434515" lon="121.28487927194475"><ele>42.0</ele><time>2026-03-22T23:05:23Z</time></trkpt><trkpt lat="25.080959958102394" lon="121.28482352855177"><ele>42.0</ele><time>2026-03-22T23:05:24Z</time></trkpt><trkpt lat="25.08096156610692" lon="121.28472070436472"><ele>42.166666666666664</ele><time>2026-03-22T23:05:26Z</time></trkpt><trkpt lat="25.080963336946084" lon="121.28460746760834"><ele>42.333333333333336</ele><time>2026-03-22T23:05:28Z</time></trkpt><trkpt lat="25.08096554180462" lon="121.28450045161678"><ele>42.5</ele><time>2026-03-22T23:05:30Z</time></trkpt><trkpt lat="25.08096842865914" lon="121.28442617360139"><ele>42.66666666666667</ele><time>2026-03-22T23:05:32Z</time></trkpt><trkpt lat="25.0809636461519" lon="121.2843475923408"><ele>42.833333333333336</ele><time>2026-03-22T23:05:40Z</time></trkpt><trkpt lat="25.080968349727343" lon="121.28442724443926"><ele>43.0</ele><time>2026-03-22T23:05:46Z</time></trkpt><trkpt lat="25.080965649163034" lon="121.28449768921027"><ele>43.0</ele><time>2026-03-22T23:05:56Z</time></trkpt><trkpt lat="25.0809637467778" lon="121.28458126070802"><ele>43.0</ele><time>2026-03-22T23:06:11Z</time></trkpt><trkpt lat="25.080966014974646" lon="121.28448827702998"><ele>43.0</ele><time>2026-03-22T23:06:25Z</time></trkpt><trkpt lat="25.08092412780457" lon="121.284390314"><ele>43.0</ele><time>2026-03-22T23:06:26Z</time></trkpt><trkpt lat="25.080922396820785" lon="121.28432083400624"><ele>43.0</ele><time>2026-03-22T23:06:27Z</time></trkpt><trkpt lat="25.08086891270353" lon="121.28421313240554"><ele>43.0</ele><time>2026-03-22T23:06:52.04Z</time></trkpt><trkpt lat="25.080884662399104" lon="121.28414123114176"><ele>43.0</ele><time>2026-03-22T23:06:58.035Z</time></trkpt><trkpt lat="25.080954238126125" lon="121.2840293726024"><ele>43.0</ele><time>2026-03-22T23:07:43.027Z</time></trkpt><trkpt lat="25.081006419387023" lon="121.28386255316198"><ele>44.0</ele><time>2026-03-22T23:07:55.015Z</time></trkpt></trkseg></trk></gpx>